Observation data for Persimmon Gap on 01/11/2018      Previous  Date  Next       Current Mesonet Observations  Soil Data  Daily Summary Page  Observations in Plain Language
KPG1 110600Z 00000KT 14/01 A2983 RMK A01 T01410010  RH  041%=      5-min Rain = 0
KPG1 110601Z 00000KT 14/01 A2983 RMK A01 T01410010  RH  041%=      5-min Rain = 0
KPG1 110602Z 23000KT 14/01 A2983 RMK A01 T01410010  RH  041%=      5-min Rain = 0
KPG1 110603Z 00000KT 14/01 A2983 RMK A01 T01390010  RH  041%=      5-min Rain = 0
KPG1 110604Z 13001KT 14/01 A2983 RMK A01 T01380009  RH  042%=      5-min Rain = 0
KPG1 110605Z 14003KT 14/01 A2982 RMK A01 T01380010  RH  042%=      5-min Rain = 0
KPG1 110606Z 13002KT 14/01 A2982 RMK A01 T01370010  RH  042%=      5-min Rain = 0
KPG1 110607Z 17003KT 14/01 A2982 RMK A01 T01350009  RH  042%=      5-min Rain = 0
KPG1 110608Z 16002KT 14/01 A2982 RMK A01 T01350010  RH  042%=      5-min Rain = 0
KPG1 110609Z 19003KT 14/01 A2982 RMK A01 T01360010  RH  042%=      5-min Rain = 0
KPG1 110610Z 19002KT 14/01 A2982 RMK A01 T01360010  RH  042%=      5-min Rain = 0
KPG1 110611Z 20003KT 14/01 A2982 RMK A01 T01360010  RH  042%=      5-min Rain = 0
KPG1 110612Z 19004KT 14/01 A2982 RMK A01 T01360010  RH  042%=      5-min Rain = 0
KPG1 110613Z 18004KT 14/01 A2982 RMK A01 T01360009  RH  042%=      5-min Rain = 0
KPG1 110614Z 20005KT 14/01 A2982 RMK A01 T01370009  RH  042%=      5-min Rain = 0
KPG1 110615Z 20005KT 14/01 A2982 RMK A01 T01350009  RH  042%=      5-min Rain = 0
KPG1 110616Z 23005KT 14/01 A2981 RMK A01 T01350009  RH  042%=      5-min Rain = 0
KPG1 110617Z 25004KT 13/01 A2982 RMK A01 T01340009  RH  042%=      5-min Rain = 0
KPG1 110618Z 25003KT 13/01 A2982 RMK A01 T01320009  RH  043%=      5-min Rain = 0
KPG1 110619Z 24002KT 13/01 A2981 RMK A01 T01300008  RH  043%=      5-min Rain = 0
KPG1 110620Z 25002KT 13/01 A2982 RMK A01 T01280009  RH  044%=      5-min Rain = 0
KPG1 110621Z 26001KT 13/01 A2981 RMK A01 T01270008  RH  044%=      5-min Rain = 0
KPG1 110622Z 24002KT 13/01 A2981 RMK A01 T01280009  RH  044%=      5-min Rain = 0
KPG1 110623Z 24003KT 13/01 A2981 RMK A01 T01280009  RH  044%=      5-min Rain = 0
KPG1 110624Z 24004KT 13/01 A2981 RMK A01 T01290008  RH  044%=      5-min Rain = 0
KPG1 110625Z 24004KT 13/01 A2981 RMK A01 T01300009  RH  043%=      5-min Rain = 0
KPG1 110626Z 23003KT 13/01 A2981 RMK A01 T01300009  RH  044%=      5-min Rain = 0
KPG1 110627Z 20003KT 13/01 A2981 RMK A01 T01270008  RH  044%=      5-min Rain = 0
KPG1 110628Z 22004KT 13/01 A2981 RMK A01 T01260008  RH  045%=      5-min Rain = 0
KPG1 110629Z 21004KT 13/01 A2981 RMK A01 T01250008  RH  045%=      5-min Rain = 0
KPG1 110630Z 20005KT 12/01 A2981 RMK A01 T01240009  RH  045%=      5-min Rain = 0
KPG1 110631Z 20007KT 12/01 A2981 RMK A01 T01240008  RH  045%=      5-min Rain = 0
KPG1 110632Z 20008KT 13/01 A2981 RMK A01 T01250007  RH  044%=      5-min Rain = 0
KPG1 110633Z 20008KT 13/01 A2981 RMK A01 T01260006  RH  044%=      5-min Rain = 0
KPG1 110634Z 21008KT 13/01 A2981 RMK A01 T01270006  RH  044%=      5-min Rain = 0
KPG1 110635Z 22007KT 13/01 A2981 RMK A01 T01280006  RH  043%=      5-min Rain = 0
KPG1 110636Z 22007KT 13/01 A2981 RMK A01 T01280005  RH  043%=      5-min Rain = 0
KPG1 110637Z 22006KT 13/01 A2981 RMK A01 T01290005  RH  043%=      5-min Rain = 0
KPG1 110638Z 21007KT 13/01 A2981 RMK A01 T01320005  RH  042%=      5-min Rain = 0
KPG1 110639Z 22009KT 13/00 A2981 RMK A01 T01340004  RH  041%=      5-min Rain = 0
KPG1 110640Z 21007KT 14/00 A2981 RMK A01 T01350004  RH  041%=      5-min Rain = 0
KPG1 110641Z 22007KT 14/00 A2981 RMK A01 T01360003  RH  040%=      5-min Rain = 0
KPG1 110642Z 18005KT 14/00 A2981 RMK A01 T01360004  RH  040%=      5-min Rain = 0
KPG1 110643Z 20007KT 13/00 A2981 RMK A01 T01320004  RH  041%=      5-min Rain = 0
KPG1 110644Z 17005KT 13/01 A2981 RMK A01 T01290005  RH  043%=      5-min Rain = 0
KPG1 110645Z 15005KT 13/01 A2981 RMK A01 T01280005  RH  043%=      5-min Rain = 0
KPG1 110646Z 17006KT 13/01 A2981 RMK A01 T01260005  RH  043%=      5-min Rain = 0
KPG1 110647Z 16005KT 12/01 A2981 RMK A01 T01240005  RH  044%=      5-min Rain = 0
KPG1 110648Z 17005KT 12/01 A2981 RMK A01 T01230005  RH  044%=      5-min Rain = 0
KPG1 110649Z 16007KT 12/00 A2981 RMK A01 T01230004  RH  044%=      5-min Rain = 0
KPG1 110650Z 16006KT 12/00 A2981 RMK A01 T01230004  RH  044%=      5-min Rain = 0
KPG1 110651Z 17005KT 13/00 A2981 RMK A01 T01250004  RH  043%=      5-min Rain = 0
KPG1 110652Z 16004KT 13/00 A2982 RMK A01 T01260003  RH  043%=      5-min Rain = 0
KPG1 110653Z 19004KT 13/00 A2981 RMK A01 T01270003  RH  043%=      5-min Rain = 0
KPG1 110654Z 19004KT 13/00 A2981 RMK A01 T01260003  RH  043%=      5-min Rain = 0
KPG1 110655Z 21005KT 13/00 A2981 RMK A01 T01250003  RH  043%=      5-min Rain = 0
KPG1 110656Z 22005KT 12/00 A2981 RMK A01 T01240002  RH  043%=      5-min Rain = 0
KPG1 110657Z 21005KT 12/00 A2981 RMK A01 T01230002  RH  043%=      5-min Rain = 0
KPG1 110658Z 20006KT 12/00 A2981 RMK A01 T01220002  RH  043%=      5-min Rain = 0
KPG1 110659Z 19005KT 12/00 A2981 RMK A01 T01220001  RH  043%=      5-min Rain = 0
KPG1 110700Z 21004KT 12/00 A2981 RMK A01 T01210001  RH  044%=      5-min Rain = 0
KPG1 110701Z 20004KT 12/00 A2981 RMK A01 T01190001  RH  044%=      5-min Rain = 0
KPG1 110702Z 19004KT 12/00 A2981 RMK A01 T01170001  RH  045%=      5-min Rain = 0
KPG1 110703Z 18004KT 12/00 A2981 RMK A01 T01160001  RH  045%=      5-min Rain = 0
KPG1 110704Z 17005KT 12/00 A2981 RMK A01 T01160001  RH  045%=      5-min Rain = 0
KPG1 110705Z 20004KT 12/00 A2981 RMK A01 T01200001  RH  044%=      5-min Rain = 0
KPG1 110706Z 23002KT 12/00 A2981 RMK A01 T01220001  RH  043%=      5-min Rain = 0
KPG1 110707Z 22002KT 12/00 A2982 RMK A01 T01210001  RH  044%=      5-min Rain = 0
KPG1 110708Z 20003KT 12/00 A2982 RMK A01 T01190000  RH  044%=      5-min Rain = 0
KPG1 110709Z 19005KT 12/00 A2982 RMK A01 T01190000  RH  044%=      5-min Rain = 0
KPG1 110710Z 20005KT 12/00 A2982 RMK A01 T01200000  RH  044%=      5-min Rain = 0
KPG1 110711Z 19005KT 12/00 A2982 RMK A01 T01200000  RH  044%=      5-min Rain = 0
KPG1 110712Z 18004KT 12/00 A2982 RMK A01 T01190000  RH  044%=      5-min Rain = 0
KPG1 110713Z 16005KT 12/00 A2982 RMK A01 T01190000  RH  044%=      5-min Rain = 0
KPG1 110714Z 16004KT 12/00 A2982 RMK A01 T011800-0  RH  044%=      5-min Rain = 0
KPG1 110715Z 17004KT 12/00 A2982 RMK A01 T011800-0  RH  044%=      5-min Rain = 0
KPG1 110716Z 18004KT 12/00 A2982 RMK A01 T011600-0  RH  044%=      5-min Rain = 0
KPG1 110717Z 15004KT 12/00 A2982 RMK A01 T011500-0  RH  045%=      5-min Rain = 0
KPG1 110718Z 14003KT 11/M00 A2982 RMK A01 T01141001  RH  045%=      5-min Rain = 0
KPG1 110719Z 14002KT 11/M00 A2982 RMK A01 T01141001  RH  045%=      5-min Rain = 0
KPG1 110720Z 14004KT 11/M00 A2982 RMK A01 T01131001  RH  045%=      5-min Rain = 0
KPG1 110721Z 14004KT 11/M00 A2982 RMK A01 T01131001  RH  045%=      5-min Rain = 0
KPG1 110722Z 14003KT 11/M00 A2982 RMK A01 T01141001  RH  045%=      5-min Rain = 0
KPG1 110723Z 14002KT 11/M00 A2982 RMK A01 T01141001  RH  045%=      5-min Rain = 0
KPG1 110724Z 01001KT 11/M00 A2982 RMK A01 T01141001  RH  045%=      5-min Rain = 0
KPG1 110725Z 03001KT 11/M00 A2982 RMK A01 T01141001  RH  045%=      5-min Rain = 0
KPG1 110726Z 12001KT 12/M00 A2982 RMK A01 T01161001  RH  045%=      5-min Rain = 0
KPG1 110727Z 10000KT 12/M00 A2982 RMK A01 T01181001  RH  044%=      5-min Rain = 0
KPG1 110728Z 06000KT 12/M00 A2982 RMK A01 T01191001  RH  044%=      5-min Rain = 0
KPG1 110729Z 29002KT 12/M00 A2983 RMK A01 T01191001  RH  043%=      5-min Rain = 0
KPG1 110730Z 15003KT 12/M00 A2982 RMK A01 T01181002  RH  044%=      5-min Rain = 0
KPG1 110731Z 15005KT 12/M00 A2982 RMK A01 T01211002  RH  043%=      5-min Rain = 0
KPG1 110732Z 33002KT 12/M00 A2982 RMK A01 T01241001  RH  042%=      5-min Rain = 0
KPG1 110733Z 35001KT 12/M00 A2982 RMK A01 T01241002  RH  042%=      5-min Rain = 0
KPG1 110734Z 00001KT 13/M00 A2982 RMK A01 T01251002  RH  042%=      5-min Rain = 0
KPG1 110735Z 34000KT 13/M00 A2982 RMK A01 T01251003  RH  041%=      5-min Rain = 0
KPG1 110736Z 00000KT 13/M00 A2983 RMK A01 T01251003  RH  041%=      5-min Rain = 0
KPG1 110737Z 27001KT 13/M00 A2983 RMK A01 T01261003  RH  041%=      5-min Rain = 0
KPG1 110738Z 26000KT 13/M00 A2983 RMK A01 T01251003  RH  041%=      5-min Rain = 0
KPG1 110739Z 25000KT 13/M00 A2983 RMK A01 T01251003  RH  041%=      5-min Rain = 0
KPG1 110740Z 07000KT 12/M00 A2983 RMK A01 T01241003  RH  041%=      5-min Rain = 0
KPG1 110741Z 07002KT 12/M00 A2983 RMK A01 T01231003  RH  042%=      5-min Rain = 0
KPG1 110742Z 05001KT 12/M00 A2983 RMK A01 T01221004  RH  042%=      5-min Rain = 0
KPG1 110743Z 00000KT 12/M00 A2983 RMK A01 T01201004  RH  042%=      5-min Rain = 0
KPG1 110744Z 00001KT 12/M00 A2983 RMK A01 T01181004  RH  043%=      5-min Rain = 0
KPG1 110745Z 35000KT 12/M00 A2983 RMK A01 T01171004  RH  043%=      5-min Rain = 0
KPG1 110746Z 12001KT 12/M00 A2983 RMK A01 T01171004  RH  043%=      5-min Rain = 0
KPG1 110747Z 11001KT 12/M00 A2983 RMK A01 T01171004  RH  043%=      5-min Rain = 0
KPG1 110748Z 10001KT 12/M00 A2983 RMK A01 T01181003  RH  043%=      5-min Rain = 0
KPG1 110749Z 05000KT 12/M00 A2983 RMK A01 T01191004  RH  043%=      5-min Rain = 0
KPG1 110750Z 13001KT 12/M00 A2983 RMK A01 T01191004  RH  043%=      5-min Rain = 0
KPG1 110751Z 15001KT 12/M00 A2983 RMK A01 T01171004  RH  043%=      5-min Rain = 0
KPG1 110752Z 15001KT 12/M00 A2983 RMK A01 T01161004  RH  043%=      5-min Rain = 0
KPG1 110753Z 17002KT 12/M00 A2983 RMK A01 T01161004  RH  043%=      5-min Rain = 0
KPG1 110754Z 17002KT 12/M00 A2983 RMK A01 T01171004  RH  043%=      5-min Rain = 0
KPG1 110755Z 16002KT 12/M01 A2983 RMK A01 T01171005  RH  043%=      5-min Rain = 0
KPG1 110756Z 18002KT 12/M00 A2983 RMK A01 T01191004  RH  043%=      5-min Rain = 0
KPG1 110757Z 17003KT 12/M01 A2983 RMK A01 T01191005  RH  042%=      5-min Rain = 0
KPG1 110758Z 16003KT 12/M00 A2983 RMK A01 T01201004  RH  042%=      5-min Rain = 0
KPG1 110759Z 14003KT 12/M01 A2983 RMK A01 T01201005  RH  042%=      5-min Rain = 0
KPG1 110800Z 15004KT 12/M01 A2983 RMK A01 T01191005  RH  042%=      5-min Rain = 0
KPG1 110801Z 15003KT 12/M01 A2983 RMK A01 T01191005  RH  042%=      5-min Rain = 0
KPG1 110802Z 14004KT 12/M01 A2983 RMK A01 T01191005  RH  042%=      5-min Rain = 0
KPG1 110803Z 12003KT 12/M01 A2983 RMK A01 T01201005  RH  042%=      5-min Rain = 0
KPG1 110804Z 15003KT 12/M01 A2983 RMK A01 T01211005  RH  042%=      5-min Rain = 0
KPG1 110805Z 14004KT 12/M01 A2983 RMK A01 T01211005  RH  042%=      5-min Rain = 0
KPG1 110806Z 15003KT 12/M01 A2983 RMK A01 T01211005  RH  042%=      5-min Rain = 0
KPG1 110807Z 16002KT 12/M01 A2983 RMK A01 T01211005  RH  042%=      5-min Rain = 0
KPG1 110808Z 19002KT 12/M01 A2983 RMK A01 T01201005  RH  042%=      5-min Rain = 0
KPG1 110809Z 21001KT 12/M01 A2983 RMK A01 T01191005  RH  042%=      5-min Rain = 0
KPG1 110810Z 22001KT 12/M01 A2983 RMK A01 T01191005  RH  042%=      5-min Rain = 0
KPG1 110811Z 13001KT 12/M01 A2983 RMK A01 T01191005  RH  042%=      5-min Rain = 0
KPG1 110812Z 23001KT 12/M01 A2983 RMK A01 T01181005  RH  043%=      5-min Rain = 0
KPG1 110813Z 23001KT 12/M01 A2983 RMK A01 T01171005  RH  043%=      5-min Rain = 0
KPG1 110814Z 16001KT 12/M01 A2983 RMK A01 T01151006  RH  043%=      5-min Rain = 0
KPG1 110815Z 17002KT 12/M01 A2983 RMK A01 T01151006  RH  043%=      5-min Rain = 0
KPG1 110816Z 21001KT 11/M01 A2982 RMK A01 T01131006  RH  044%=      5-min Rain = 0
KPG1 110817Z 26002KT 11/M01 A2982 RMK A01 T01121006  RH  044%=      5-min Rain = 0
KPG1 110818Z 22002KT 11/M01 A2982 RMK A01 T01101006  RH  045%=      5-min Rain = 0
KPG1 110819Z 20001KT 11/M01 A2982 RMK A01 T01091006  RH  045%=      5-min Rain = 0
KPG1 110820Z 15000KT 11/M01 A2982 RMK A01 T01101006  RH  045%=      5-min Rain = 0
KPG1 110821Z 24001KT 11/M01 A2982 RMK A01 T01101006  RH  045%=      5-min Rain = 0
KPG1 110822Z 25001KT 11/M01 A2982 RMK A01 T01111006  RH  045%=      5-min Rain = 0
KPG1 110823Z 23001KT 11/M01 A2982 RMK A01 T01111006  RH  044%=      5-min Rain = 0
KPG1 110824Z 19002KT 11/M01 A2982 RMK A01 T01121005  RH  044%=      5-min Rain = 0
KPG1 110825Z 17002KT 11/M01 A2982 RMK A01 T01121005  RH  044%=      5-min Rain = 0
KPG1 110826Z 21003KT 11/M01 A2982 RMK A01 T01101006  RH  045%=      5-min Rain = 0
KPG1 110827Z 18003KT 11/M01 A2982 RMK A01 T01091006  RH  045%=      5-min Rain = 0
KPG1 110828Z 17003KT 11/M01 A2981 RMK A01 T01091006  RH  045%=      5-min Rain = 0
KPG1 110829Z 19002KT 11/M01 A2981 RMK A01 T01081006  RH  045%=      5-min Rain = 0
KPG1 110830Z 21002KT 11/M01 A2981 RMK A01 T01061006  RH  046%=      5-min Rain = 0
KPG1 110831Z 21003KT 10/M01 A2982 RMK A01 T01031006  RH  046%=      5-min Rain = 0
KPG1 110832Z 20005KT 10/M01 A2982 RMK A01 T01021006  RH  047%=      5-min Rain = 0
KPG1 110833Z 18005KT 10/M01 A2981 RMK A01 T01021006  RH  047%=      5-min Rain = 0
KPG1 110834Z 18005KT 10/M01 A2981 RMK A01 T01021006  RH  047%=      5-min Rain = 0
KPG1 110835Z 17005KT 10/M01 A2982 RMK A01 T01011006  RH  047%=      5-min Rain = 0
KPG1 110836Z 16005KT 10/M01 A2982 RMK A01 T01001006  RH  048%=      5-min Rain = 0
KPG1 110837Z 18004KT 10/M01 A2982 RMK A01 T01001006  RH  048%=      5-min Rain = 0
KPG1 110838Z 21003KT 10/M01 A2982 RMK A01 T00991006  RH  048%=      5-min Rain = 0
KPG1 110839Z 17002KT 10/M01 A2982 RMK A01 T00971007  RH  048%=      5-min Rain = 0
KPG1 110840Z 18003KT 10/M01 A2982 RMK A01 T00961007  RH  049%=      5-min Rain = 0
KPG1 110841Z 17003KT 10/M01 A2982 RMK A01 T00971007  RH  048%=      5-min Rain = 0
KPG1 110842Z 19003KT 10/M01 A2982 RMK A01 T00991007  RH  048%=      5-min Rain = 0
KPG1 110843Z 16003KT 10/M01 A2982 RMK A01 T01001007  RH  047%=      5-min Rain = 0
KPG1 110844Z 16002KT 10/M01 A2982 RMK A01 T01031007  RH  047%=      5-min Rain = 0
KPG1 110845Z 15002KT 11/M01 A2982 RMK A01 T01051007  RH  046%=      5-min Rain = 0
KPG1 110846Z 13002KT 11/M01 A2982 RMK A01 T01071008  RH  045%=      5-min Rain = 0
KPG1 110847Z 13000KT 11/M01 A2982 RMK A01 T01061008  RH  045%=      5-min Rain = 0
KPG1 110848Z 36001KT 10/M01 A2982 RMK A01 T01031008  RH  046%=      5-min Rain = 0
KPG1 110849Z 35002KT 10/M01 A2982 RMK A01 T01011008  RH  046%=      5-min Rain = 0
KPG1 110850Z 00001KT 10/M01 A2982 RMK A01 T01011009  RH  046%=      5-min Rain = 0
KPG1 110851Z 05000KT 10/M01 A2982 RMK A01 T01041008  RH  046%=      5-min Rain = 0
KPG1 110852Z 03001KT 11/M01 A2982 RMK A01 T01061007  RH  045%=      5-min Rain = 0
KPG1 110853Z 03001KT 11/M01 A2983 RMK A01 T01061008  RH  045%=      5-min Rain = 0
KPG1 110854Z 04002KT 11/M01 A2983 RMK A01 T01061009  RH  045%=      5-min Rain = 0
KPG1 110855Z 03002KT 10/M01 A2983 RMK A01 T01031010  RH  045%=      5-min Rain = 0
KPG1 110856Z 09002KT 10/M01 A2983 RMK A01 T01001010  RH  046%=      5-min Rain = 0
KPG1 110857Z 08002KT 10/M01 A2983 RMK A01 T00991010  RH  047%=      5-min Rain = 0
KPG1 110858Z 11001KT 10/M01 A2983 RMK A01 T00991009  RH  047%=      5-min Rain = 0
KPG1 110859Z 12001KT 10/M01 A2983 RMK A01 T01001009  RH  047%=      5-min Rain = 0
KPG1 110900Z 12002KT 10/M01 A2983 RMK A01 T01021009  RH  046%=      5-min Rain = 0
KPG1 110901Z 12001KT 10/M01 A2983 RMK A01 T01031009  RH  046%=      5-min Rain = 0
KPG1 110902Z 16001KT 10/M01 A2983 RMK A01 T01041009  RH  045%=      5-min Rain = 0
KPG1 110903Z 17003KT 11/M01 A2983 RMK A01 T01071010  RH  044%=      5-min Rain = 0
KPG1 110904Z 16003KT 11/M01 A2983 RMK A01 T01111010  RH  043%=      5-min Rain = 0
KPG1 110905Z 17002KT 11/M01 A2983 RMK A01 T01121010  RH  043%=      5-min Rain = 0
KPG1 110906Z 14003KT 11/M01 A2983 RMK A01 T01131010  RH  042%=      5-min Rain = 0
KPG1 110907Z 13002KT 11/M01 A2983 RMK A01 T01131010  RH  042%=      5-min Rain = 0
KPG1 110908Z 11003KT 11/M01 A2983 RMK A01 T01131010  RH  042%=      5-min Rain = 0
KPG1 110909Z 13003KT 11/M01 A2983 RMK A01 T01121010  RH  043%=      5-min Rain = 0
KPG1 110910Z 14003KT 11/M01 A2983 RMK A01 T01111011  RH  043%=      5-min Rain = 0
KPG1 110911Z 13002KT 11/M01 A2983 RMK A01 T01101011  RH  043%=      5-min Rain = 0
KPG1 110912Z 11001KT 11/M01 A2983 RMK A01 T01101011  RH  043%=      5-min Rain = 0
KPG1 110913Z 13004KT 11/M01 A2983 RMK A01 T01101011  RH  043%=      5-min Rain = 0
KPG1 110914Z 15006KT 11/M01 A2983 RMK A01 T01101011  RH  043%=      5-min Rain = 0
KPG1 110915Z 16004KT 11/M01 A2983 RMK A01 T01101012  RH  043%=      5-min Rain = 0
KPG1 110916Z 16004KT 11/M01 A2983 RMK A01 T01101011  RH  043%=      5-min Rain = 0
KPG1 110917Z 16005KT 11/M01 A2983 RMK A01 T01101012  RH  043%=      5-min Rain = 0
KPG1 110918Z 16004KT 11/M01 A2983 RMK A01 T01111012  RH  042%=      5-min Rain = 0
KPG1 110919Z 19005KT 11/M01 A2983 RMK A01 T01131012  RH  042%=      5-min Rain = 0
KPG1 110920Z 15006KT 11/M01 A2983 RMK A01 T01141012  RH  042%=      5-min Rain = 0
KPG1 110921Z 15008KT 11/M01 A2983 RMK A01 T01131012  RH  042%=      5-min Rain = 0
KPG1 110922Z 16007KT 11/M01 A2983 RMK A01 T01101012  RH  043%=      5-min Rain = 0
KPG1 110923Z 17006KT 11/M01 A2983 RMK A01 T01091012  RH  043%=      5-min Rain = 0
KPG1 110924Z 18008KT 11/M01 A2983 RMK A01 T01061012  RH  044%=      5-min Rain = 0
KPG1 110925Z 18008KT 11/M01 A2983 RMK A01 T01051012  RH  044%=      5-min Rain = 0
KPG1 110926Z 17009KT 10/M01 A2983 RMK A01 T01041012  RH  044%=      5-min Rain = 0
KPG1 110927Z 18008KT 11/M01 A2983 RMK A01 T01051012  RH  044%=      5-min Rain = 0
KPG1 110928Z 18008KT 11/M01 A2983 RMK A01 T01061012  RH  044%=      5-min Rain = 0
KPG1 110929Z 18008KT 11/M01 A2983 RMK A01 T01061012  RH  044%=      5-min Rain = 0
KPG1 110930Z 18008KT 11/M01 A2983 RMK A01 T01071012  RH  043%=      5-min Rain = 0
KPG1 110931Z 18008KT 11/M01 A2983 RMK A01 T01071013  RH  043%=      5-min Rain = 0
KPG1 110932Z 17008KT 11/M01 A2983 RMK A01 T01071013  RH  043%=      5-min Rain = 0
KPG1 110933Z 17006KT 11/M01 A2983 RMK A01 T01081012  RH  043%=      5-min Rain = 0
KPG1 110934Z 18006KT 11/M01 A2983 RMK A01 T01081013  RH  043%=      5-min Rain = 0
KPG1 110935Z 17007KT 11/M01 A2983 RMK A01 T01081013  RH  043%=      5-min Rain = 0
KPG1 110936Z 18008KT 11/M01 A2983 RMK A01 T01091013  RH  043%=      5-min Rain = 0
KPG1 110937Z 17006KT 11/M01 A2983 RMK A01 T01091013  RH  043%=      5-min Rain = 0
KPG1 110938Z 19005KT 11/M01 A2983 RMK A01 T01091012  RH  043%=      5-min Rain = 0
KPG1 110939Z 18006KT 11/M01 A2983 RMK A01 T01071013  RH  043%=      5-min Rain = 0
KPG1 110940Z 20003KT 11/M01 A2983 RMK A01 T01061013  RH  044%=      5-min Rain = 0
KPG1 110941Z 22003KT 10/M01 A2983 RMK A01 T01021013  RH  044%=      5-min Rain = 0
KPG1 110942Z 25003KT 10/M01 A2983 RMK A01 T00991014  RH  045%=      5-min Rain = 0
KPG1 110943Z 21003KT 10/M01 A2983 RMK A01 T00981013  RH  046%=      5-min Rain = 0
KPG1 110944Z 20005KT 10/M01 A2984 RMK A01 T00971013  RH  046%=      5-min Rain = 0
KPG1 110945Z 18007KT 10/M01 A2983 RMK A01 T00971013  RH  046%=      5-min Rain = 0
KPG1 110946Z 18008KT 10/M01 A2983 RMK A01 T00981013  RH  046%=      5-min Rain = 0
KPG1 110947Z 17008KT 10/M01 A2983 RMK A01 T01001012  RH  046%=      5-min Rain = 0
KPG1 110948Z 17007KT 10/M01 A2983 RMK A01 T01041012  RH  045%=      5-min Rain = 0
KPG1 110949Z 18006KT 11/M01 A2984 RMK A01 T01061012  RH  044%=      5-min Rain = 0
KPG1 110950Z 18008KT 11/M01 A2984 RMK A01 T01061012  RH  044%=      5-min Rain = 0
KPG1 110951Z 19006KT 11/M01 A2984 RMK A01 T01061012  RH  044%=      5-min Rain = 0
KPG1 110952Z 23003KT 11/M01 A2983 RMK A01 T01051012  RH  044%=      5-min Rain = 0
KPG1 110953Z 25004KT 10/M01 A2984 RMK A01 T01021013  RH  044%=      5-min Rain = 0
KPG1 110954Z 25004KT 10/M01 A2984 RMK A01 T01001013  RH  045%=      5-min Rain = 0
KPG1 110955Z 21004KT 10/M01 A2984 RMK A01 T01011013  RH  045%=      5-min Rain = 0
KPG1 110956Z 20003KT 10/M01 A2984 RMK A01 T01031013  RH  044%=      5-min Rain = 0
KPG1 110957Z 18003KT 10/M01 A2984 RMK A01 T01041013  RH  044%=      5-min Rain = 0
KPG1 110958Z 18002KT 11/M01 A2984 RMK A01 T01051013  RH  044%=      5-min Rain = 0
KPG1 110959Z 19003KT 11/M01 A2984 RMK A01 T01051013  RH  044%=      5-min Rain = 0
KPG1 111000Z 20002KT 10/M01 A2984 RMK A01 T01031013  RH  044%=      5-min Rain = 0
KPG1 111001Z 19003KT 10/M01 A2983 RMK A01 T01021013  RH  045%=      5-min Rain = 0
KPG1 111002Z 19003KT 10/M01 A2983 RMK A01 T01011014  RH  045%=      5-min Rain = 0
KPG1 111003Z 17004KT 10/M01 A2983 RMK A01 T01001014  RH  045%=      5-min Rain = 0
KPG1 111004Z 17003KT 10/M01 A2983 RMK A01 T00991014  RH  045%=      5-min Rain = 0
KPG1 111005Z 18004KT 10/M01 A2983 RMK A01 T00981014  RH  046%=      5-min Rain = 0
KPG1 111006Z 18004KT 10/M01 A2983 RMK A01 T00971014  RH  046%=      5-min Rain = 0
KPG1 111007Z 16005KT 10/M01 A2983 RMK A01 T00971014  RH  046%=      5-min Rain = 0
KPG1 111008Z 19005KT 10/M01 A2983 RMK A01 T00971013  RH  046%=      5-min Rain = 0
KPG1 111009Z 17005KT 10/M01 A2983 RMK A01 T00961014  RH  046%=      5-min Rain = 0
KPG1 111010Z 18004KT 10/M01 A2983 RMK A01 T00951014  RH  047%=      5-min Rain = 0
KPG1 111011Z 19004KT 09/M01 A2984 RMK A01 T00941014  RH  047%=      5-min Rain = 0
KPG1 111012Z 18004KT 09/M01 A2984 RMK A01 T00931014  RH  047%=      5-min Rain = 0
KPG1 111013Z 17003KT 09/M01 A2984 RMK A01 T00931014  RH  047%=      5-min Rain = 0
KPG1 111014Z 17004KT 09/M01 A2984 RMK A01 T00931014  RH  047%=      5-min Rain = 0
KPG1 111015Z 17003KT 09/M01 A2984 RMK A01 T00931014  RH  047%=      5-min Rain = 0
KPG1 111016Z 17003KT 09/M01 A2984 RMK A01 T00941014  RH  047%=      5-min Rain = 0
KPG1 111017Z 17003KT 09/M01 A2984 RMK A01 T00941013  RH  047%=      5-min Rain = 0
KPG1 111018Z 18002KT 09/M01 A2984 RMK A01 T00941014  RH  047%=      5-min Rain = 0
KPG1 111019Z 26001KT 09/M01 A2984 RMK A01 T00941014  RH  047%=      5-min Rain = 0
KPG1 111020Z 11000KT 09/M01 A2984 RMK A01 T00941013  RH  047%=      5-min Rain = 0
KPG1 111021Z 07001KT 09/M01 A2984 RMK A01 T00931014  RH  047%=      5-min Rain = 0
KPG1 111022Z 03001KT 09/M01 A2985 RMK A01 T00901014  RH  048%=      5-min Rain = 0
KPG1 111023Z 33002KT 09/M01 A2985 RMK A01 T00881014  RH  049%=      5-min Rain = 0
KPG1 111024Z 02002KT 09/M01 A2985 RMK A01 T00881013  RH  049%=      5-min Rain = 0
KPG1 111025Z 29003KT 09/M01 A2985 RMK A01 T00911012  RH  049%=      5-min Rain = 0
KPG1 111026Z 29005KT 10/M01 A2985 RMK A01 T00951010  RH  048%=      5-min Rain = 0
KPG1 111027Z 31002KT 10/M01 A2985 RMK A01 T01001010  RH  046%=      5-min Rain = 0
KPG1 111028Z 01001KT 10/M01 A2985 RMK A01 T00971013  RH  046%=      5-min Rain = 0
KPG1 111029Z 30004KT 10/M01 A2985 RMK A01 T01001011  RH  046%=      5-min Rain = 0
KPG1 111030Z 29004KT 10/M01 A2985 RMK A01 T01041010  RH  045%=      5-min Rain = 0
KPG1 111031Z 29004KT 11/M01 A2985 RMK A01 T01081010  RH  044%=      5-min Rain = 0
KPG1 111032Z 30002KT 11/M01 A2986 RMK A01 T01091010  RH  043%=      5-min Rain = 0
KPG1 111033Z 30003KT 11/M01 A2986 RMK A01 T01101011  RH  043%=      5-min Rain = 0
KPG1 111034Z 29005KT 11/M01 A2986 RMK A01 T01111010  RH  043%=      5-min Rain = 0
KPG1 111035Z 29005KT 11/M01 A2986 RMK A01 T01131010  RH  042%=      5-min Rain = 0
KPG1 111036Z 31002KT 12/M01 A2986 RMK A01 T01151010  RH  042%=      5-min Rain = 0
KPG1 111037Z 29001KT 12/M01 A2986 RMK A01 T01151010  RH  042%=      5-min Rain = 0
KPG1 111038Z 29003KT 12/M01 A2986 RMK A01 T01151011  RH  042%=      5-min Rain = 0
KPG1 111039Z 29001KT 12/M01 A2986 RMK A01 T01151010  RH  042%=      5-min Rain = 0
KPG1 111040Z 28002KT 12/M01 A2985 RMK A01 T01151010  RH  042%=      5-min Rain = 0
KPG1 111041Z 32002KT 12/M01 A2985 RMK A01 T01151010  RH  042%=      5-min Rain = 0
KPG1 111042Z 27003KT 12/M01 A2985 RMK A01 T01151010  RH  042%=      5-min Rain = 0
KPG1 111043Z 25003KT 12/M01 A2985 RMK A01 T01161010  RH  042%=      5-min Rain = 0
KPG1 111044Z 28002KT 12/M01 A2985 RMK A01 T01151010  RH  042%=      5-min Rain = 0
KPG1 111045Z 29005KT 12/M01 A2986 RMK A01 T01151010  RH  042%=      5-min Rain = 0
KPG1 111046Z 30004KT 12/M01 A2986 RMK A01 T01151009  RH  042%=      5-min Rain = 0
KPG1 111047Z 31003KT 12/M01 A2986 RMK A01 T01151009  RH  042%=      5-min Rain = 0
KPG1 111048Z 29002KT 11/M01 A2986 RMK A01 T01141010  RH  042%=      5-min Rain = 0
KPG1 111049Z 29002KT 12/M01 A2986 RMK A01 T01151009  RH  042%=      5-min Rain = 0
KPG1 111050Z 30006KT 12/M01 A2986 RMK A01 T01151009  RH  042%=      5-min Rain = 0
KPG1 111051Z 30004KT 12/M01 A2986 RMK A01 T01151009  RH  042%=      5-min Rain = 0
KPG1 111052Z 31002KT 12/M01 A2986 RMK A01 T01161009  RH  042%=      5-min Rain = 0
KPG1 111053Z 28005KT 12/M01 A2986 RMK A01 T01161009  RH  042%=      5-min Rain = 0
KPG1 111054Z 29005KT 12/M01 A2986 RMK A01 T01161010  RH  042%=      5-min Rain = 0
KPG1 111055Z 28004KT 12/M01 A2986 RMK A01 T01161009  RH  042%=      5-min Rain = 0
KPG1 111056Z 27004KT 12/M01 A2986 RMK A01 T01151009  RH  042%=      5-min Rain = 0
KPG1 111057Z 27005KT 12/M01 A2986 RMK A01 T01151009  RH  042%=      5-min Rain = 0
KPG1 111058Z 28005KT 11/M01 A2986 RMK A01 T01141009  RH  042%=      5-min Rain = 0
KPG1 111059Z 29004KT 11/M01 A2986 RMK A01 T01141009  RH  043%=      5-min Rain = 0
KPG1 111100Z 31004KT 11/M01 A2986 RMK A01 T01141008  RH  043%=      5-min Rain = 0
KPG1 111101Z 30004KT 11/M01 A2987 RMK A01 T01141008  RH  043%=      5-min Rain = 0
KPG1 111102Z 31004KT 12/M01 A2987 RMK A01 T01151008  RH  043%=      5-min Rain = 0
KPG1 111103Z 26003KT 12/M01 A2986 RMK A01 T01151008  RH  043%=      5-min Rain = 0
KPG1 111104Z 24004KT 12/M01 A2986 RMK A01 T01151008  RH  042%=      5-min Rain = 0
KPG1 111105Z 24007KT 12/M01 A2986 RMK A01 T01151007  RH  043%=      5-min Rain = 0
KPG1 111106Z 24006KT 12/M01 A2985 RMK A01 T01151007  RH  043%=      5-min Rain = 0
KPG1 111107Z 24006KT 11/M01 A2985 RMK A01 T01141006  RH  043%=      5-min Rain = 0
KPG1 111108Z 25009KT 11/M01 A2986 RMK A01 T01141006  RH  043%=      5-min Rain = 0
KPG1 111109Z 26008KT 11/M01 A2986 RMK A01 T01141006  RH  043%=      5-min Rain = 0
KPG1 111110Z 27008KT 12/M01 A2986 RMK A01 T01151006  RH  043%=      5-min Rain = 0
KPG1 111111Z 27004KT 12/M01 A2986 RMK A01 T01151005  RH  043%=      5-min Rain = 0
KPG1 111112Z 27003KT 12/M01 A2986 RMK A01 T01151006  RH  043%=      5-min Rain = 0
KPG1 111113Z 28004KT 12/M01 A2986 RMK A01 T01151005  RH  043%=      5-min Rain = 0
KPG1 111114Z 28004KT 12/M01 A2986 RMK A01 T01151005  RH  043%=      5-min Rain = 0
KPG1 111115Z 30002KT 12/M01 A2986 RMK A01 T01151005  RH  043%=      5-min Rain = 0
KPG1 111116Z 29002KT 12/M01 A2987 RMK A01 T01151005  RH  043%=      5-min Rain = 0
KPG1 111117Z 28005KT 11/M01 A2987 RMK A01 T01141006  RH  043%=      5-min Rain = 0
KPG1 111118Z 27004KT 11/M01 A2987 RMK A01 T01141005  RH  043%=      5-min Rain = 0
KPG1 111119Z 26005KT 12/M01 A2987 RMK A01 T01151005  RH  043%=      5-min Rain = 0
KPG1 111120Z 27004KT 12/M01 A2987 RMK A01 T01151005  RH  043%=      5-min Rain = 0
KPG1 111121Z 25004KT 12/M01 A2987 RMK A01 T01151005  RH  044%=      5-min Rain = 0
KPG1 111122Z 24004KT 11/M01 A2987 RMK A01 T01141005  RH  044%=      5-min Rain = 0
KPG1 111123Z 25004KT 11/M01 A2987 RMK A01 T01141005  RH  044%=      5-min Rain = 0
KPG1 111124Z 22003KT 11/M01 A2987 RMK A01 T01131005  RH  044%=      5-min Rain = 0
KPG1 111125Z 25001KT 11/M01 A2987 RMK A01 T01121005  RH  044%=      5-min Rain = 0
KPG1 111126Z 19000KT 11/M01 A2988 RMK A01 T01121005  RH  044%=      5-min Rain = 0
KPG1 111127Z 35000KT 11/M01 A2988 RMK A01 T01121005  RH  044%=      5-min Rain = 0
KPG1 111128Z 34001KT 11/M01 A2988 RMK A01 T01111005  RH  044%=      5-min Rain = 0
KPG1 111129Z 34001KT 11/M01 A2988 RMK A01 T01111005  RH  045%=      5-min Rain = 0
KPG1 111130Z 32003KT 11/M01 A2988 RMK A01 T01101005  RH  045%=      5-min Rain = 0
KPG1 111131Z 34007KT 11/M00 A2988 RMK A01 T01101004  RH  045%=      5-min Rain = 0
KPG1 111132Z 35005KT 11/M00 A2988 RMK A01 T01141003  RH  045%=      5-min Rain = 0
KPG1 111133Z 35005KT 12/M00 A2988 RMK A01 T01171003  RH  044%=      5-min Rain = 0
KPG1 111134Z 32007KT 12/M00 A2989 RMK A01 T01181003  RH  043%=      5-min Rain = 0
KPG1 111135Z 32006KT 12/M00 A2989 RMK A01 T01191003  RH  043%=      5-min Rain = 0
KPG1 111136Z 35003KT 12/M00 A2989 RMK A01 T01201003  RH  043%=      5-min Rain = 0
KPG1 111137Z 02002KT 12/M00 A2989 RMK A01 T01201003  RH  043%=      5-min Rain = 0
KPG1 111138Z 33001KT 12/M00 A2988 RMK A01 T01191003  RH  043%=      5-min Rain = 0
KPG1 111139Z 24004KT 12/M00 A2988 RMK A01 T01191003  RH  043%=      5-min Rain = 0
KPG1 111140Z 23004KT 12/M00 A2988 RMK A01 T01191004  RH  043%=      5-min Rain = 0
KPG1 111141Z 25004KT 12/M00 A2988 RMK A01 T01191003  RH  043%=      5-min Rain = 0
KPG1 111142Z 24004KT 12/M00 A2988 RMK A01 T01181003  RH  043%=      5-min Rain = 0
KPG1 111143Z 23003KT 12/M00 A2988 RMK A01 T01171003  RH  043%=      5-min Rain = 0
KPG1 111144Z 23003KT 12/M00 A2989 RMK A01 T01151004  RH  044%=      5-min Rain = 0
KPG1 111145Z 25002KT 12/M00 A2989 RMK A01 T01151003  RH  044%=      5-min Rain = 0
KPG1 111146Z 31002KT 11/M00 A2989 RMK A01 T01131004  RH  044%=      5-min Rain = 0
KPG1 111147Z 32002KT 11/M00 A2989 RMK A01 T01121004  RH  045%=      5-min Rain = 0
KPG1 111148Z 32002KT 11/M00 A2989 RMK A01 T01111004  RH  045%=      5-min Rain = 0
KPG1 111149Z 33002KT 11/M00 A2989 RMK A01 T01111003  RH  045%=      5-min Rain = 0
KPG1 111150Z 31003KT 11/M00 A2989 RMK A01 T01121003  RH  045%=      5-min Rain = 0
KPG1 111151Z 32001KT 11/M00 A2989 RMK A01 T01121003  RH  045%=      5-min Rain = 0
KPG1 111152Z 34001KT 11/M00 A2989 RMK A01 T01131003  RH  045%=      5-min Rain = 0
KPG1 111153Z 34001KT 11/M00 A2989 RMK A01 T01131003  RH  045%=      5-min Rain = 0
KPG1 111154Z 20001KT 11/M00 A2989 RMK A01 T01131003  RH  045%=      5-min Rain = 0
KPG1 111155Z 28002KT 11/M00 A2989 RMK A01 T01131003  RH  045%=      5-min Rain = 0
KPG1 111156Z 27001KT 11/M00 A2989 RMK A01 T01131003  RH  045%=      5-min Rain = 0
KPG1 111157Z 26001KT 11/M00 A2989 RMK A01 T01131003  RH  045%=      5-min Rain = 0
KPG1 111158Z 26000KT 11/M00 A2989 RMK A01 T01131004  RH  044%=      5-min Rain = 0
KPG1 111159Z 29000KT 11/M00 A2989 RMK A01 T01131003  RH  044%=      5-min Rain = 0
KPG1 111200Z 16000KT 11/M00 A2989 RMK A01 T01131003  RH  044%=      5-min Rain = 0
KPG1 111201Z 13001KT 11/M00 A2989 RMK A01 T01131003  RH  045%=      5-min Rain = 0
KPG1 111202Z 13001KT 11/M00 A2989 RMK A01 T01131003  RH  045%=      5-min Rain = 0
KPG1 111203Z 15002KT 11/M00 A2988 RMK A01 T01121003  RH  045%=      5-min Rain = 0
KPG1 111204Z 15004KT 11/M00 A2988 RMK A01 T01111004  RH  045%=      5-min Rain = 0
KPG1 111205Z 16004KT 11/M00 A2988 RMK A01 T01101004  RH  045%=      5-min Rain = 0
KPG1 111206Z 16006KT 11/M00 A2988 RMK A01 T01081004  RH  046%=      5-min Rain = 0
KPG1 111207Z 16006KT 11/M00 A2988 RMK A01 T01061004  RH  046%=      5-min Rain = 0
KPG1 111208Z 16006KT 11/M00 A2988 RMK A01 T01051004  RH  047%=      5-min Rain = 0
KPG1 111209Z 17006KT 10/M00 A2988 RMK A01 T01041004  RH  047%=      5-min Rain = 0
KPG1 111210Z 16003KT 10/M00 A2988 RMK A01 T01031004  RH  047%=      5-min Rain = 0
KPG1 111211Z 18003KT 10/M01 A2988 RMK A01 T01011005  RH  048%=      5-min Rain = 0
KPG1 111212Z 20002KT 10/M01 A2988 RMK A01 T00991005  RH  048%=      5-min Rain = 0
KPG1 111213Z 25004KT 10/M01 A2988 RMK A01 T00981005  RH  049%=      5-min Rain = 0
KPG1 111214Z 24006KT 10/M01 A2988 RMK A01 T00981005  RH  049%=      5-min Rain = 0
KPG1 111215Z 23006KT 10/M00 A2988 RMK A01 T00981004  RH  049%=      5-min Rain = 0
KPG1 111216Z 22005KT 10/M00 A2988 RMK A01 T01011003  RH  048%=      5-min Rain = 0
KPG1 111217Z 18006KT 10/M00 A2989 RMK A01 T01031004  RH  047%=      5-min Rain = 0
KPG1 111218Z 18005KT 10/M00 A2988 RMK A01 T01041004  RH  047%=      5-min Rain = 0
KPG1 111219Z 19005KT 11/M00 A2988 RMK A01 T01051004  RH  047%=      5-min Rain = 0
KPG1 111220Z 19005KT 11/M00 A2989 RMK A01 T01051004  RH  047%=      5-min Rain = 0
KPG1 111221Z 21005KT 11/M00 A2988 RMK A01 T01051004  RH  047%=      5-min Rain = 0
KPG1 111222Z 23007KT 11/M00 A2988 RMK A01 T01051004  RH  047%=      5-min Rain = 0
KPG1 111223Z 24007KT 11/M00 A2988 RMK A01 T01061004  RH  047%=      5-min Rain = 0
KPG1 111224Z 23010KT 11/M00 A2988 RMK A01 T01081003  RH  046%=      5-min Rain = 0
KPG1 111225Z 23010KT 11/M00 A2988 RMK A01 T01101003  RH  046%=      5-min Rain = 0
KPG1 111226Z 23012KT 11/M00 A2988 RMK A01 T01131002  RH  045%=      5-min Rain = 0
KPG1 111227Z 23011KT 12/M00 A2988 RMK A01 T01161002  RH  044%=      5-min Rain = 0
KPG1 111228Z 23013KT 12/M00 A2988 RMK A01 T01171003  RH  044%=      5-min Rain = 0
KPG1 111229Z 23014KT 12/M00 A2987 RMK A01 T01181003  RH  043%=      5-min Rain = 0
KPG1 111230Z 23014KT 12/M00 A2987 RMK A01 T01191003  RH  043%=      5-min Rain = 0
KPG1 111231Z 22014KT 12/M00 A2987 RMK A01 T01201003  RH  043%=      5-min Rain = 0
KPG1 111232Z 22013KT 12/M00 A2987 RMK A01 T01201003  RH  043%=      5-min Rain = 0
KPG1 111233Z 22013KT 12/M00 A2987 RMK A01 T01201003  RH  043%=      5-min Rain = 0
KPG1 111234Z 22013KT 12/M00 A2987 RMK A01 T01201002  RH  043%=      5-min Rain = 0
KPG1 111235Z 23013KT 12/M00 A2987 RMK A01 T01201003  RH  043%=      5-min Rain = 0
KPG1 111236Z 22013KT 12/M00 A2987 RMK A01 T01201002  RH  043%=      5-min Rain = 0
KPG1 111237Z 23013KT 12/M00 A2987 RMK A01 T01211002  RH  043%=      5-min Rain = 0
KPG1 111238Z 23014KT 12/M00 A2987 RMK A01 T01211002  RH  043%=      5-min Rain = 0
KPG1 111239Z 23013KT 12/M00 A2988 RMK A01 T01211002  RH  043%=      5-min Rain = 0
KPG1 111240Z 24013KT 12/M00 A2988 RMK A01 T01211002  RH  043%=      5-min Rain = 0
KPG1 111241Z 24014KT 12/M00 A2988 RMK A01 T01211002  RH  043%=      5-min Rain = 0
KPG1 111242Z 24011G17KT 12/M00 A2988 RMK A01 T01211002  RH  043%=      5-min Rain = 0
KPG1 111243Z 24012G17KT 12/M00 A2988 RMK A01 T01211002  RH  043%=      5-min Rain = 0
KPG1 111244Z 25015KT 12/M00 A2989 RMK A01 T01211002  RH  043%=      5-min Rain = 0
KPG1 111245Z 25010G15KT 12/M00 A2989 RMK A01 T01211002  RH  043%=      5-min Rain = 0
KPG1 111246Z 25012G17KT 12/M00 A2989 RMK A01 T01211001  RH  043%=      5-min Rain = 0
KPG1 111247Z 25009KT 12/M00 A2989 RMK A01 T01211001  RH  043%=      5-min Rain = 0
KPG1 111248Z 25007KT 12/M00 A2989 RMK A01 T01221001  RH  043%=      5-min Rain = 0
KPG1 111249Z 26010KT 12/M00 A299 RMK A01 T01211001  RH  043%=      5-min Rain = 0
KPG1 111250Z 26012KT 12/00 A299 RMK A01 T012200-0  RH  043%=      5-min Rain = 0
KPG1 111251Z 26007KT 12/00 A299 RMK A01 T012300-0  RH  043%=      5-min Rain = 0
KPG1 111252Z 26009KT 12/00 A299 RMK A01 T012300-0  RH  043%=      5-min Rain = 0
KPG1 111253Z 28006KT 12/00 A299 RMK A01 T012300-0  RH  043%=      5-min Rain = 0
KPG1 111254Z 29005KT 12/00 A2991 RMK A01 T012300-0  RH  043%=      5-min Rain = 0
KPG1 111255Z 30005KT 12/M00 A2991 RMK A01 T01221001  RH  043%=      5-min Rain = 0
KPG1 111256Z 29005KT 12/00 A2991 RMK A01 T012200-0  RH  043%=      5-min Rain = 0
KPG1 111257Z 31003KT 12/00 A2991 RMK A01 T012300-0  RH  043%=      5-min Rain = 0
KPG1 111258Z 33001KT 12/M00 A2991 RMK A01 T01221001  RH  043%=      5-min Rain = 0
KPG1 111259Z 31004KT 12/M00 A2992 RMK A01 T01221001  RH  043%=      5-min Rain = 0
KPG1 111300Z 31005KT 12/M00 A2992 RMK A01 T01221001  RH  043%=      5-min Rain = 0
KPG1 111301Z 30006KT 12/M00 A2992 RMK A01 T01221001  RH  043%=      5-min Rain = 0
KPG1 111302Z 31006KT 12/00 A2992 RMK A01 T012300-0  RH  043%=      5-min Rain = 0
KPG1 111303Z 31006KT 12/M00 A2992 RMK A01 T01231001  RH  043%=      5-min Rain = 0
KPG1 111304Z 30005KT 12/00 A2992 RMK A01 T012300-0  RH  043%=      5-min Rain = 0
KPG1 111305Z 30004KT 12/00 A2992 RMK A01 T012300-0  RH  043%=      5-min Rain = 0
KPG1 111306Z 28004KT 12/M00 A2992 RMK A01 T01231001  RH  043%=      5-min Rain = 0
KPG1 111307Z 28005KT 12/00 A2992 RMK A01 T012300-0  RH  043%=      5-min Rain = 0
KPG1 111308Z 29004KT 12/00 A2992 RMK A01 T012300-0  RH  043%=      5-min Rain = 0
KPG1 111309Z 28003KT 12/00 A2992 RMK A01 T012200-0  RH  043%=      5-min Rain = 0
KPG1 111310Z 27002KT 12/00 A2992 RMK A01 T012200-0  RH  043%=      5-min Rain = 0
KPG1 111311Z 25002KT 12/M00 A2992 RMK A01 T01211001  RH  043%=      5-min Rain = 0
KPG1 111312Z 26003KT 12/M00 A2992 RMK A01 T01201001  RH  043%=      5-min Rain = 0
KPG1 111313Z 23001KT 12/00 A2992 RMK A01 T012000-0  RH  043%=      5-min Rain = 0
KPG1 111314Z 25003KT 12/M00 A2992 RMK A01 T01201001  RH  043%=      5-min Rain = 0
KPG1 111315Z 21003KT 12/M00 A2992 RMK A01 T01191001  RH  044%=      5-min Rain = 0
KPG1 111316Z 23003KT 12/M00 A2992 RMK A01 T01181001  RH  044%=      5-min Rain = 0
KPG1 111317Z 21005KT 12/M00 A2992 RMK A01 T01171001  RH  044%=      5-min Rain = 0
KPG1 111318Z 22006KT 12/M00 A2992 RMK A01 T01161001  RH  044%=      5-min Rain = 0
KPG1 111319Z 21007KT 12/M00 A2992 RMK A01 T01151001  RH  045%=      5-min Rain = 0
KPG1 111320Z 21008KT 12/M00 A2991 RMK A01 T01151001  RH  045%=      5-min Rain = 0
KPG1 111321Z 20009KT 11/M00 A2991 RMK A01 T01141001  RH  045%=      5-min Rain = 0
KPG1 111322Z 21008KT 11/M00 A2991 RMK A01 T01131001  RH  045%=      5-min Rain = 0
KPG1 111323Z 20009KT 11/00 A2991 RMK A01 T011300-0  RH  045%=      5-min Rain = 0
KPG1 111324Z 21009KT 11/00 A2991 RMK A01 T011300-0  RH  045%=      5-min Rain = 0
KPG1 111325Z 21008KT 11/00 A2992 RMK A01 T011300-0  RH  045%=      5-min Rain = 0
KPG1 111326Z 23008KT 11/M00 A2992 RMK A01 T01131001  RH  045%=      5-min Rain = 0
KPG1 111327Z 23007KT 11/00 A2992 RMK A01 T011300-0  RH  046%=      5-min Rain = 0
KPG1 111328Z 24007KT 11/M00 A2992 RMK A01 T01131001  RH  046%=      5-min Rain = 0
KPG1 111329Z 23006KT 11/00 A2992 RMK A01 T011300-0  RH  046%=      5-min Rain = 0
KPG1 111330Z 24005KT 11/00 A2992 RMK A01 T011300-0  RH  046%=      5-min Rain = 0
KPG1 111331Z 25006KT 11/00 A2992 RMK A01 T011300-0  RH  046%=      5-min Rain = 0
KPG1 111332Z 25007KT 11/M00 A2992 RMK A01 T01121001  RH  046%=      5-min Rain = 0
KPG1 111333Z 25006KT 11/00 A2992 RMK A01 T011300-0  RH  046%=      5-min Rain = 0
KPG1 111334Z 26005KT 11/M00 A2992 RMK A01 T01131001  RH  045%=      5-min Rain = 0
KPG1 111335Z 26005KT 11/M00 A2992 RMK A01 T01131001  RH  045%=      5-min Rain = 0
KPG1 111336Z 25005KT 11/M00 A2992 RMK A01 T01141001  RH  045%=      5-min Rain = 0
KPG1 111337Z 26006KT 11/M00 A2992 RMK A01 T01141001  RH  045%=      5-min Rain = 0
KPG1 111338Z 26006KT 11/M00 A2992 RMK A01 T01141001  RH  045%=      5-min Rain = 0
KPG1 111339Z 27005KT 12/M00 A2992 RMK A01 T01151001  RH  045%=      5-min Rain = 0
KPG1 111340Z 26009KT 12/M00 A2992 RMK A01 T01151001  RH  045%=      5-min Rain = 0
KPG1 111341Z 25008KT 12/M00 A2993 RMK A01 T01161001  RH  045%=      5-min Rain = 0
KPG1 111342Z 26008KT 12/M00 A2993 RMK A01 T01171001  RH  044%=      5-min Rain = 0
KPG1 111343Z 25005KT 12/M00 A2993 RMK A01 T01171001  RH  044%=      5-min Rain = 0
KPG1 111344Z 25007KT 12/M00 A2993 RMK A01 T01171001  RH  044%=      5-min Rain = 0
KPG1 111345Z 25007KT 12/M00 A2993 RMK A01 T01171001  RH  044%=      5-min Rain = 0
KPG1 111346Z 25007KT 12/M00 A2993 RMK A01 T01171001  RH  044%=      5-min Rain = 0
KPG1 111347Z 23006KT 12/M00 A2993 RMK A01 T01161001  RH  044%=      5-min Rain = 0
KPG1 111348Z 23006KT 12/M00 A2993 RMK A01 T01161001  RH  045%=      5-min Rain = 0
KPG1 111349Z 24006KT 12/M00 A2993 RMK A01 T01151001  RH  045%=      5-min Rain = 0
KPG1 111350Z 23006KT 12/M00 A2993 RMK A01 T01151001  RH  045%=      5-min Rain = 0
KPG1 111351Z 24006KT 12/M00 A2993 RMK A01 T01151001  RH  045%=      5-min Rain = 0
KPG1 111352Z 23005KT 11/M00 A2993 RMK A01 T01141001  RH  045%=      5-min Rain = 0
KPG1 111353Z 23005KT 11/M00 A2993 RMK A01 T01141001  RH  045%=      5-min Rain = 0
KPG1 111354Z 23004KT 11/M00 A2993 RMK A01 T01131001  RH  045%=      5-min Rain = 0
KPG1 111355Z 22004KT 11/M00 A2993 RMK A01 T01131001  RH  045%=      5-min Rain = 0
KPG1 111356Z 21005KT 11/M00 A2993 RMK A01 T01121002  RH  045%=      5-min Rain = 0
KPG1 111357Z 21005KT 11/M00 A2993 RMK A01 T01111001  RH  046%=      5-min Rain = 0
KPG1 111358Z 20004KT 11/M00 A2993 RMK A01 T01111001  RH  046%=      5-min Rain = 0
KPG1 111359Z 20005KT 11/M00 A2993 RMK A01 T01101002  RH  046%=      5-min Rain = 0
KPG1 111400Z 21006KT 11/M00 A2994 RMK A01 T01101001  RH  046%=      5-min Rain = 0
KPG1 111401Z 22005KT 11/M00 A2994 RMK A01 T01101001  RH  046%=      5-min Rain = 0
KPG1 111402Z 22005KT 11/M00 A2994 RMK A01 T01101001  RH  046%=      5-min Rain = 0
KPG1 111403Z 22005KT 11/M00 A2994 RMK A01 T01101001  RH  046%=      5-min Rain = 0
KPG1 111404Z 21005KT 11/M00 A2994 RMK A01 T01101001  RH  046%=      5-min Rain = 0
KPG1 111405Z 22005KT 11/M00 A2994 RMK A01 T01111001  RH  046%=      5-min Rain = 0
KPG1 111406Z 22006KT 11/M00 A2994 RMK A01 T01111001  RH  046%=      5-min Rain = 0
KPG1 111407Z 22007KT 11/M00 A2994 RMK A01 T01111001  RH  046%=      5-min Rain = 0
KPG1 111408Z 22007KT 11/M00 A2994 RMK A01 T01111001  RH  046%=      5-min Rain = 0
KPG1 111409Z 22007KT 11/M00 A2994 RMK A01 T01111001  RH  046%=      5-min Rain = 0
KPG1 111410Z 22007KT 11/M00 A2994 RMK A01 T01111001  RH  046%=      5-min Rain = 0
KPG1 111411Z 22006KT 11/M00 A2994 RMK A01 T01121001  RH  046%=      5-min Rain = 0
KPG1 111412Z 22006KT 11/M00 A2994 RMK A01 T01121001  RH  046%=      5-min Rain = 0
KPG1 111413Z 23007KT 11/M00 A2994 RMK A01 T01121001  RH  046%=      5-min Rain = 0
KPG1 111414Z 23007KT 11/M00 A2994 RMK A01 T01121001  RH  046%=      5-min Rain = 0
KPG1 111415Z 22007KT 11/M00 A2994 RMK A01 T01111001  RH  046%=      5-min Rain = 0
KPG1 111416Z 23008KT 11/M00 A2995 RMK A01 T01121001  RH  046%=      5-min Rain = 0
KPG1 111417Z 22006KT 11/M00 A2995 RMK A01 T01121001  RH  046%=      5-min Rain = 0
KPG1 111418Z 22006KT 11/M00 A2995 RMK A01 T01121001  RH  046%=      5-min Rain = 0
KPG1 111419Z 22006KT 11/M00 A2995 RMK A01 T01121001  RH  046%=      5-min Rain = 0
KPG1 111420Z 22008KT 11/M00 A2995 RMK A01 T01121001  RH  046%=      5-min Rain = 0
KPG1 111421Z 22007KT 11/M00 A2995 RMK A01 T01131001  RH  045%=      5-min Rain = 0
KPG1 111422Z 23008KT 11/M00 A2995 RMK A01 T01141001  RH  045%=      5-min Rain = 0
KPG1 111423Z 23007KT 12/M00 A2995 RMK A01 T01151001  RH  045%=      5-min Rain = 0
KPG1 111424Z 23007KT 12/M00 A2995 RMK A01 T01151001  RH  045%=      5-min Rain = 0
KPG1 111425Z 22007KT 12/M00 A2995 RMK A01 T01161001  RH  045%=      5-min Rain = 0
KPG1 111426Z 22008KT 12/M00 A2995 RMK A01 T01161001  RH  044%=      5-min Rain = 0
KPG1 111427Z 22007KT 12/M00 A2996 RMK A01 T01171001  RH  044%=      5-min Rain = 0
KPG1 111428Z 22009KT 12/M00 A2996 RMK A01 T01171001  RH  044%=      5-min Rain = 0
KPG1 111429Z 22009KT 12/M00 A2996 RMK A01 T01181001  RH  044%=      5-min Rain = 0
KPG1 111430Z 23008KT 12/M00 A2996 RMK A01 T01191001  RH  044%=      5-min Rain = 0
KPG1 111431Z 21007KT 12/M00 A2996 RMK A01 T01201001  RH  043%=      5-min Rain = 0
KPG1 111432Z 22007KT 12/M00 A2996 RMK A01 T01201001  RH  043%=      5-min Rain = 0
KPG1 111433Z 22009KT 12/M00 A2996 RMK A01 T01201001  RH  043%=      5-min Rain = 0
KPG1 111434Z 21008KT 12/M00 A2996 RMK A01 T01211001  RH  043%=      5-min Rain = 0
KPG1 111435Z 22006KT 12/M00 A2996 RMK A01 T01211001  RH  043%=      5-min Rain = 0
KPG1 111436Z 22007KT 12/M00 A2996 RMK A01 T01221001  RH  043%=      5-min Rain = 0
KPG1 111437Z 22007KT 12/M00 A2996 RMK A01 T01221001  RH  043%=      5-min Rain = 0
KPG1 111438Z 20006KT 12/00 A2996 RMK A01 T012200-0  RH  043%=      5-min Rain = 0
KPG1 111439Z 22006KT 12/00 A2996 RMK A01 T012300-0  RH  043%=      5-min Rain = 0
KPG1 111440Z 23007KT 12/00 A2997 RMK A01 T012400-0  RH  043%=      5-min Rain = 0
KPG1 111441Z 21006KT 12/00 A2997 RMK A01 T012400-0  RH  042%=      5-min Rain = 0
KPG1 111442Z 22006KT 13/00 A2997 RMK A01 T01250000  RH  042%=      5-min Rain = 0
KPG1 111443Z 25007KT 13/00 A2997 RMK A01 T01260000  RH  042%=      5-min Rain = 0
KPG1 111444Z 23007KT 13/00 A2997 RMK A01 T01270000  RH  042%=      5-min Rain = 0
KPG1 111445Z 25009KT 13/00 A2997 RMK A01 T01280000  RH  042%=      5-min Rain = 0
KPG1 111446Z 25009KT 13/00 A2997 RMK A01 T01290000  RH  041%=      5-min Rain = 0
KPG1 111447Z 24007KT 13/00 A2997 RMK A01 T01290000  RH  041%=      5-min Rain = 0
KPG1 111448Z 25009KT 13/00 A2997 RMK A01 T01290000  RH  041%=      5-min Rain = 0
KPG1 111449Z 23007KT 13/00 A2997 RMK A01 T01300000  RH  041%=      5-min Rain = 0
KPG1 111450Z 23008KT 13/00 A2997 RMK A01 T01300000  RH  041%=      5-min Rain = 0
KPG1 111451Z 24008KT 13/00 A2997 RMK A01 T01300001  RH  041%=      5-min Rain = 0
KPG1 111452Z 23008KT 13/00 A2998 RMK A01 T01300000  RH  041%=      5-min Rain = 0
KPG1 111453Z 24009KT 13/00 A2998 RMK A01 T01310000  RH  041%=      5-min Rain = 0
KPG1 111454Z 24011KT 13/00 A2998 RMK A01 T01310001  RH  041%=      5-min Rain = 0
KPG1 111455Z 24009KT 13/00 A2998 RMK A01 T01310000  RH  041%=      5-min Rain = 0
KPG1 111456Z 24008KT 13/00 A2998 RMK A01 T01320001  RH  041%=      5-min Rain = 0
KPG1 111457Z 25007KT 13/00 A2998 RMK A01 T01320001  RH  041%=      5-min Rain = 0
KPG1 111458Z 24009KT 13/00 A2998 RMK A01 T01320001  RH  041%=      5-min Rain = 0
KPG1 111459Z 24010KT 13/00 A2998 RMK A01 T01330001  RH  040%=      5-min Rain = 0
KPG1 111500Z 25008G15KT 13/00 A2998 RMK A01 T01340001  RH  040%=      5-min Rain = 0
KPG1 111501Z 27011G16KT 13/00 A2998 RMK A01 T01340001  RH  040%=      5-min Rain = 0
KPG1 111502Z 25010G17KT 14/00 A2998 RMK A01 T01350001  RH  040%=      5-min Rain = 0
KPG1 111503Z 25010G15KT 14/00 A2998 RMK A01 T01350001  RH  040%=      5-min Rain = 0
KPG1 111504Z 25010KT 14/00 A2999 RMK A01 T01350001  RH  040%=      5-min Rain = 0
KPG1 111505Z 26011KT 14/00 A2999 RMK A01 T01350001  RH  040%=      5-min Rain = 0
KPG1 111506Z 26010G17KT 14/00 A2999 RMK A01 T01360001  RH  040%=      5-min Rain = 0
KPG1 111507Z 27013KT 14/00 A2999 RMK A01 T01360001  RH  039%=      5-min Rain = 0
KPG1 111508Z 27011G16KT 14/00 A2999 RMK A01 T01360000  RH  039%=      5-min Rain = 0
KPG1 111509Z 28013KT 14/00 A2999 RMK A01 T01360000  RH  039%=      5-min Rain = 0
KPG1 111510Z 27008G13KT 14/00 A2999 RMK A01 T01370001  RH  039%=      5-min Rain = 0
KPG1 111511Z 28012KT 14/00 A30 RMK A01 T01370001  RH  039%=      5-min Rain = 0
KPG1 111512Z 27010G16KT 14/00 A30 RMK A01 T01370000  RH  039%=      5-min Rain = 0
KPG1 111513Z 28013KT 14/00 A30 RMK A01 T01370001  RH  039%=      5-min Rain = 0
KPG1 111514Z 27009KT 14/00 A30 RMK A01 T01380000  RH  039%=      5-min Rain = 0
KPG1 111515Z 27013KT 14/00 A30 RMK A01 T01380001  RH  039%=      5-min Rain = 0
KPG1 111516Z 27010G16KT 14/00 A30 RMK A01 T01380001  RH  039%=      5-min Rain = 0
KPG1 111517Z 28012G17KT 14/00 A30 RMK A01 T01380000  RH  039%=      5-min Rain = 0
KPG1 111518Z 27011KT 14/00 A30 RMK A01 T01380000  RH  039%=      5-min Rain = 0
KPG1 111519Z 27010KT 14/00 A30 RMK A01 T01380001  RH  039%=      5-min Rain = 0
KPG1 111520Z 27009KT 14/00 A30 RMK A01 T01390001  RH  039%=      5-min Rain = 0
KPG1 111521Z 28014G20KT 14/00 A3001 RMK A01 T01400002  RH  039%=      5-min Rain = 0
KPG1 111522Z 28012G18KT 14/00 A30 RMK A01 T01400001  RH  038%=      5-min Rain = 0
KPG1 111523Z 28013G19KT 14/00 A3001 RMK A01 T01410001  RH  038%=      5-min Rain = 0
KPG1 111524Z 29009KT 14/00 A3001 RMK A01 T01410001  RH  038%=      5-min Rain = 0
KPG1 111525Z 29011G16KT 14/00 A3001 RMK A01 T01420001  RH  038%=      5-min Rain = 0
KPG1 111526Z 27008G13KT 14/00 A3001 RMK A01 T01420001  RH  038%=      5-min Rain = 0
KPG1 111527Z 28013G18KT 14/00 A3001 RMK A01 T01420001  RH  038%=      5-min Rain = 0
KPG1 111528Z 27011G16KT 14/00 A3001 RMK A01 T01430001  RH  038%=      5-min Rain = 0
KPG1 111529Z 28014G19KT 14/00 A3001 RMK A01 T01430001  RH  038%=      5-min Rain = 0
KPG1 111530Z 29015G20KT 14/00 A3001 RMK A01 T01430001  RH  038%=      5-min Rain = 0
KPG1 111531Z 28011G16KT 14/00 A3001 RMK A01 T01430001  RH  038%=      5-min Rain = 0
KPG1 111532Z 28014G22KT 14/00 A3001 RMK A01 T01430001  RH  038%=      5-min Rain = 0
KPG1 111533Z 28018KT 14/00 A3001 RMK A01 T01440001  RH  038%=      5-min Rain = 0
KPG1 111534Z 28014G19KT 14/00 A3001 RMK A01 T01440001  RH  038%=      5-min Rain = 0
KPG1 111535Z 27013KT 14/00 A3001 RMK A01 T01440001  RH  038%=      5-min Rain = 0
KPG1 111536Z 28014G19KT 15/00 A3001 RMK A01 T01450001  RH  038%=      5-min Rain = 0
KPG1 111537Z 27017KT 15/00 A3001 RMK A01 T01450001  RH  037%=      5-min Rain = 0
KPG1 111538Z 27013G18KT 15/00 A3002 RMK A01 T01450001  RH  037%=      5-min Rain = 0
KPG1 111539Z 28010KT 15/00 A3002 RMK A01 T01450002  RH  037%=      5-min Rain = 0
KPG1 111540Z 28014G21KT 15/00 A3002 RMK A01 T01460002  RH  037%=      5-min Rain = 0
KPG1 111541Z 29012G19KT 15/00 A3002 RMK A01 T01470001  RH  037%=      5-min Rain = 0
KPG1 111542Z 28014G19KT 15/00 A3002 RMK A01 T01470001  RH  037%=      5-min Rain = 0
KPG1 111543Z 28013KT 15/00 A3002 RMK A01 T01470002  RH  037%=      5-min Rain = 0
KPG1 111544Z 29010G15KT 15/00 A3002 RMK A01 T01480002  RH  037%=      5-min Rain = 0
KPG1 111545Z 28011KT 15/00 A3002 RMK A01 T01480002  RH  037%=      5-min Rain = 0
KPG1 111546Z 28016G24KT 15/00 A3002 RMK A01 T01480001  RH  037%=      5-min Rain = 0
KPG1 111547Z 28018G23KT 15/00 A3002 RMK A01 T01480001  RH  037%=      5-min Rain = 0
KPG1 111548Z 29014KT 15/00 A3003 RMK A01 T01490002  RH  037%=      5-min Rain = 0
KPG1 111549Z 28020G25KT 15/00 A3002 RMK A01 T01490002  RH  037%=      5-min Rain = 0
KPG1 111550Z 28016G25KT 15/00 A3003 RMK A01 T01490002  RH  036%=      5-min Rain = 0
KPG1 111551Z 29019G26KT 15/00 A3002 RMK A01 T01500002  RH  036%=      5-min Rain = 0
KPG1 111552Z 28015KT 15/00 A3002 RMK A01 T01500002  RH  036%=      5-min Rain = 0
KPG1 111553Z 28014KT 15/00 A3002 RMK A01 T01490002  RH  036%=      5-min Rain = 0
KPG1 111554Z 28014G20KT 15/00 A3003 RMK A01 T01500003  RH  036%=      5-min Rain = 0
KPG1 111555Z 28016G24KT 15/00 A3003 RMK A01 T01510003  RH  036%=      5-min Rain = 0
KPG1 111556Z 29018G25KT 15/00 A3003 RMK A01 T01510002  RH  036%=      5-min Rain = 0
KPG1 111557Z 28016KT 15/00 A3003 RMK A01 T01510002  RH  036%=      5-min Rain = 0
KPG1 111558Z 29015G20KT 15/00 A3003 RMK A01 T01520002  RH  036%=      5-min Rain = 0
KPG1 111559Z 28017KT 15/00 A3003 RMK A01 T01520002  RH  036%=      5-min Rain = 0
KPG1 111600Z 30018G24KT 15/00 A3003 RMK A01 T01530003  RH  036%=      5-min Rain = 0
KPG1 111601Z 29015G21KT 15/00 A3003 RMK A01 T01520002  RH  036%=      5-min Rain = 0
KPG1 111602Z 29014KT 15/00 A3003 RMK A01 T01530003  RH  036%=      5-min Rain = 0
KPG1 111603Z 29011KT 15/00 A3003 RMK A01 T01530003  RH  036%=      5-min Rain = 0
KPG1 111604Z 29014G21KT 16/00 A3003 RMK A01 T01550004  RH  036%=      5-min Rain = 0
KPG1 111605Z 29021G31KT 16/00 A3003 RMK A01 T01560004  RH  035%=      5-min Rain = 0
KPG1 111606Z 30018KT 16/00 A3003 RMK A01 T01550003  RH  035%=      5-min Rain = 0
KPG1 111607Z 30015G20KT 16/00 A3003 RMK A01 T01550003  RH  035%=      5-min Rain = 0
KPG1 111608Z 30011KT 16/00 A3004 RMK A01 T01550003  RH  036%=      5-min Rain = 0
KPG1 111609Z 29013G18KT 16/00 A3004 RMK A01 T01560003  RH  035%=      5-min Rain = 0
KPG1 111610Z 28021G26KT 16/00 A3003 RMK A01 T01560003  RH  035%=      5-min Rain = 0
KPG1 111611Z 28012G20KT 16/00 A3004 RMK A01 T01560003  RH  035%=      5-min Rain = 0
KPG1 111612Z 28019G24KT 16/00 A3004 RMK A01 T01570003  RH  035%=      5-min Rain = 0
KPG1 111613Z 29014KT 16/00 A3004 RMK A01 T01570003  RH  035%=      5-min Rain = 0
KPG1 111614Z 29013G19KT 16/00 A3004 RMK A01 T01570003  RH  035%=      5-min Rain = 0
KPG1 111615Z 28017G22KT 16/00 A3004 RMK A01 T01580003  RH  035%=      5-min Rain = 0
KPG1 111616Z 28017G22KT 16/00 A3004 RMK A01 T01580003  RH  035%=      5-min Rain = 0
KPG1 111617Z 28018KT 16/00 A3004 RMK A01 T01590003  RH  035%=      5-min Rain = 0
KPG1 111618Z 29013KT 16/00 A3005 RMK A01 T01590004  RH  035%=      5-min Rain = 0
KPG1 111619Z 31014G23KT 16/00 A3005 RMK A01 T01610004  RH  034%=      5-min Rain = 0
KPG1 111620Z 30014G20KT 16/00 A3004 RMK A01 T01610003  RH  034%=      5-min Rain = 0
KPG1 111621Z 29010KT 16/00 A3005 RMK A01 T01610003  RH  034%=      5-min Rain = 0
KPG1 111622Z 30011KT 16/00 A3005 RMK A01 T01620004  RH  034%=      5-min Rain = 0
KPG1 111623Z 29014G19KT 16/00 A3005 RMK A01 T01630004  RH  034%=      5-min Rain = 0
KPG1 111624Z 28016G21KT 16/00 A3005 RMK A01 T01630003  RH  034%=      5-min Rain = 0
KPG1 111625Z 31018KT 16/00 A3005 RMK A01 T01630003  RH  034%=      5-min Rain = 0
KPG1 111626Z 31016G21KT 16/00 A3005 RMK A01 T01620002  RH  034%=      5-min Rain = 0
KPG1 111627Z 29017G23KT 16/00 A3005 RMK A01 T01620002  RH  034%=      5-min Rain = 0
KPG1 111628Z 29012G18KT 16/00 A3005 RMK A01 T01630002  RH  034%=      5-min Rain = 0
KPG1 111629Z 30012KT 16/00 A3006 RMK A01 T01630002  RH  033%=      5-min Rain = 0
KPG1 111630Z 30009G14KT 16/00 A3006 RMK A01 T01630002  RH  034%=      5-min Rain = 0
KPG1 111631Z 30015KT 16/00 A3006 RMK A01 T01640003  RH  033%=      5-min Rain = 0
KPG1 111632Z 29016G21KT 17/00 A3006 RMK A01 T01650003  RH  033%=      5-min Rain = 0
KPG1 111633Z 28013KT 16/00 A3006 RMK A01 T01640003  RH  033%=      5-min Rain = 0
KPG1 111634Z 29011KT 16/00 A3006 RMK A01 T01630003  RH  034%=      5-min Rain = 0
KPG1 111635Z 29016G22KT 17/00 A3006 RMK A01 T01650004  RH  033%=      5-min Rain = 0
KPG1 111636Z 28013G22KT 17/00 A3006 RMK A01 T01650003  RH  033%=      5-min Rain = 0
KPG1 111637Z 30011G18KT 17/00 A3007 RMK A01 T01650003  RH  033%=      5-min Rain = 0
KPG1 111638Z 30009KT 17/01 A3007 RMK A01 T01670005  RH  033%=      5-min Rain = 0
KPG1 111639Z 29015G21KT 17/00 A3007 RMK A01 T01680003  RH  033%=      5-min Rain = 0
KPG1 111640Z 28016G22KT 17/00 A3007 RMK A01 T01680003  RH  033%=      5-min Rain = 0
KPG1 111641Z 28023G29KT 17/00 A3006 RMK A01 T01680003  RH  033%=      5-min Rain = 0
KPG1 111642Z 30016G26KT 17/00 A3007 RMK A01 T01670003  RH  033%=      5-min Rain = 0
KPG1 111643Z 28015G21KT 17/00 A3007 RMK A01 T01660002  RH  033%=      5-min Rain = 0
KPG1 111644Z 31011KT 17/00 A3007 RMK A01 T01660002  RH  033%=      5-min Rain = 0
KPG1 111645Z 29016G21KT 17/00 A3007 RMK A01 T01670003  RH  033%=      5-min Rain = 0
KPG1 111646Z 28016G27KT 17/00 A3008 RMK A01 T01670002  RH  033%=      5-min Rain = 0
KPG1 111647Z 29018G24KT 17/00 A3007 RMK A01 T01680002  RH  032%=      5-min Rain = 0
KPG1 111648Z 30012G17KT 17/00 A3008 RMK A01 T01690002  RH  032%=      5-min Rain = 0
KPG1 111649Z 30016G23KT 17/00 A3008 RMK A01 T01690002  RH  032%=      5-min Rain = 0
KPG1 111650Z 29012G18KT 17/00 A3008 RMK A01 T01690002  RH  032%=      5-min Rain = 0
KPG1 111651Z 31014KT 17/00 A3008 RMK A01 T01700002  RH  032%=      5-min Rain = 0
KPG1 111652Z 31012KT 17/00 A3008 RMK A01 T01700002  RH  032%=      5-min Rain = 0
KPG1 111653Z 29010KT 17/00 A3008 RMK A01 T01690002  RH  032%=      5-min Rain = 0
KPG1 111654Z 31015G20KT 17/00 A3008 RMK A01 T01700002  RH  032%=      5-min Rain = 0
KPG1 111655Z 31020KT 17/00 A3008 RMK A01 T01700000  RH  032%=      5-min Rain = 0
KPG1 111656Z 31019KT 17/00 A3008 RMK A01 T016700-0  RH  032%=      5-min Rain = 0
KPG1 111657Z 31017G22KT 17/00 A3008 RMK A01 T01670000  RH  032%=      5-min Rain = 0
KPG1 111658Z 31012KT 17/00 A3008 RMK A01 T01660000  RH  032%=      5-min Rain = 0
KPG1 111659Z 32010KT 17/00 A3008 RMK A01 T01660001  RH  033%=      5-min Rain = 0
KPG1 111700Z 32011KT 17/00 A3008 RMK A01 T01690003  RH  032%=      5-min Rain = 0
KPG1 111701Z 30009KT 17/00 A3008 RMK A01 T01720002  RH  032%=      5-min Rain = 0
KPG1 111702Z 31010G19KT 17/00 A3008 RMK A01 T01720002  RH  032%=      5-min Rain = 0
KPG1 111703Z 31014KT 17/00 A3008 RMK A01 T01730003  RH  032%=      5-min Rain = 0
KPG1 111704Z 30011G16KT 17/00 A3009 RMK A01 T01730002  RH  031%=      5-min Rain = 0
KPG1 111705Z 31008G13KT 17/00 A3009 RMK A01 T01730002  RH  031%=      5-min Rain = 0
KPG1 111706Z 31010G15KT 17/00 A3009 RMK A01 T01730002  RH  031%=      5-min Rain = 0
KPG1 111707Z 31011KT 18/00 A3009 RMK A01 T01750003  RH  031%=      5-min Rain = 0
KPG1 111708Z 33012KT 18/00 A3009 RMK A01 T01760003  RH  031%=      5-min Rain = 0
KPG1 111709Z 31010KT 18/00 A3009 RMK A01 T01750002  RH  031%=      5-min Rain = 0
KPG1 111710Z 34008KT 18/00 A3009 RMK A01 T01750003  RH  031%=      5-min Rain = 0
KPG1 111711Z 34011G16KT 18/00 A3009 RMK A01 T01760003  RH  031%=      5-min Rain = 0
KPG1 111712Z 33017G22KT 18/00 A3009 RMK A01 T01750002  RH  031%=      5-min Rain = 0
KPG1 111713Z 31016G21KT 17/00 A3009 RMK A01 T01710001  RH  031%=      5-min Rain = 0
KPG1 111714Z 32010KT 17/00 A3009 RMK A01 T01710002  RH  032%=      5-min Rain = 0
KPG1 111715Z 34010KT 17/00 A301 RMK A01 T01730003  RH  032%=      5-min Rain = 0
KPG1 111716Z 33015KT 17/00 A301 RMK A01 T01740003  RH  032%=      5-min Rain = 0
KPG1 111717Z 34013G20KT 17/00 A301 RMK A01 T01740003  RH  032%=      5-min Rain = 0
KPG1 111718Z 32018KT 18/00 A301 RMK A01 T01750003  RH  031%=      5-min Rain = 0
KPG1 111719Z 34022KT 17/01 A301 RMK A01 T01700008  RH  033%=      5-min Rain = 0
KPG1 111720Z 34024G31KT 16/01 A301 RMK A01 T01640014  RH  036%=      5-min Rain = 0
KPG1 111721Z 34023G29KT 16/02 A301 RMK A01 T01590017  RH  038%=      5-min Rain = 0
KPG1 111722Z 34022KT 16/02 A3011 RMK A01 T01570020  RH  040%=      5-min Rain = 0
KPG1 111723Z 35020G25KT 16/02 A3011 RMK A01 T01560020  RH  040%=      5-min Rain = 0
KPG1 111724Z 35024G29KT 16/02 A3011 RMK A01 T01550021  RH  040%=      5-min Rain = 0
KPG1 111725Z 35021G26KT 16/02 A3011 RMK A01 T01550021  RH  040%=      5-min Rain = 0
KPG1 111726Z 34021G28KT 15/02 A3011 RMK A01 T01540021  RH  041%=      5-min Rain = 0
KPG1 111727Z 34020G26KT 15/02 A3012 RMK A01 T01530022  RH  041%=      5-min Rain = 0
KPG1 111728Z 35024G29KT 15/02 A3012 RMK A01 T01530022  RH  041%=      5-min Rain = 0
KPG1 111729Z 35017G26KT 15/02 A3012 RMK A01 T01500022  RH  042%=      5-min Rain = 0
KPG1 111730Z 35018KT 15/02 A3012 RMK A01 T01500023  RH  042%=      5-min Rain = 0
KPG1 111731Z 35016G22KT 15/02 A3012 RMK A01 T01510023  RH  042%=      5-min Rain = 0
KPG1 111732Z 34020G25KT 15/02 A3012 RMK A01 T01520023  RH  042%=      5-min Rain = 0
KPG1 111733Z 33018G25KT 15/02 A3012 RMK A01 T01510022  RH  042%=      5-min Rain = 0
KPG1 111734Z 34018KT 15/02 A3012 RMK A01 T01490023  RH  042%=      5-min Rain = 0
KPG1 111735Z 34016G21KT 15/02 A3012 RMK A01 T01500024  RH  043%=      5-min Rain = 0
KPG1 111736Z 34017KT 15/03 A3012 RMK A01 T01520025  RH  042%=      5-min Rain = 0
KPG1 111737Z 35013G18KT 15/03 A3012 RMK A01 T01530025  RH  042%=      5-min Rain = 0
KPG1 111738Z 35016G24KT 15/03 A3013 RMK A01 T01540027  RH  042%=      5-min Rain = 0
KPG1 111739Z 35020G25KT 15/03 A3013 RMK A01 T01530025  RH  042%=      5-min Rain = 0
KPG1 111740Z 35018KT 15/03 A3013 RMK A01 T01510025  RH  043%=      5-min Rain = 0
KPG1 111741Z 35017G22KT 15/03 A3013 RMK A01 T01500025  RH  043%=      5-min Rain = 0
KPG1 111742Z 35021KT 15/03 A3013 RMK A01 T01500025  RH  043%=      5-min Rain = 0
KPG1 111743Z 35019KT 15/02 A3013 RMK A01 T01480024  RH  043%=      5-min Rain = 0
KPG1 111744Z 01017G23KT 15/02 A3013 RMK A01 T01470024  RH  043%=      5-min Rain = 0
KPG1 111745Z 35020KT 15/02 A3013 RMK A01 T01480023  RH  043%=      5-min Rain = 0
KPG1 111746Z 35019KT 15/02 A3013 RMK A01 T01470023  RH  043%=      5-min Rain = 0
KPG1 111747Z 35016G21KT 15/02 A3013 RMK A01 T01460023  RH  043%=      5-min Rain = 0
KPG1 111748Z 35016KT 15/02 A3013 RMK A01 T01470023  RH  043%=      5-min Rain = 0
KPG1 111749Z 35018KT 15/02 A3013 RMK A01 T01470023  RH  043%=      5-min Rain = 0
KPG1 111750Z 36017KT 15/02 A3013 RMK A01 T01470023  RH  043%=      5-min Rain = 0
KPG1 111751Z 35018KT 15/02 A3013 RMK A01 T01450023  RH  044%=      5-min Rain = 0
KPG1 111752Z 34018KT 15/02 A3013 RMK A01 T01450023  RH  044%=      5-min Rain = 0
KPG1 111753Z 34014KT 15/02 A3013 RMK A01 T01450023  RH  044%=      5-min Rain = 0
KPG1 111754Z 36015KT 15/02 A3013 RMK A01 T01450023  RH  044%=      5-min Rain = 0
KPG1 111755Z 35017KT 15/02 A3013 RMK A01 T01460023  RH  043%=      5-min Rain = 0
KPG1 111756Z 34015G21KT 14/02 A3013 RMK A01 T01440022  RH  044%=      5-min Rain = 0
KPG1 111757Z 35016KT 14/02 A3013 RMK A01 T01430024  RH  044%=      5-min Rain = 0
KPG1 111758Z 00013KT 15/02 A3014 RMK A01 T01450024  RH  044%=      5-min Rain = 0
KPG1 111759Z 00016KT 15/03 A3014 RMK A01 T01480025  RH  044%=      5-min Rain = 0
KPG1 111800Z 00017G22KT 15/02 A3014 RMK A01 T01450023  RH  044%=      5-min Rain = 0
KPG1 111801Z 35018G23KT 15/02 A3014 RMK A01 T01450024  RH  044%=      5-min Rain = 0
KPG1 111802Z 34015G20KT 15/02 A3014 RMK A01 T01450024  RH  044%=      5-min Rain = 0
KPG1 111803Z 35016KT 15/03 A3014 RMK A01 T01460025  RH  044%=      5-min Rain = 0
KPG1 111804Z 01013G19KT 15/03 A3014 RMK A01 T01470025  RH  044%=      5-min Rain = 0
KPG1 111805Z 01019G25KT 15/03 A3014 RMK A01 T01490025  RH  043%=      5-min Rain = 0
KPG1 111806Z 01016KT 15/02 A3014 RMK A01 T01470024  RH  043%=      5-min Rain = 0
KPG1 111807Z 34014KT 15/03 A3014 RMK A01 T01470025  RH  044%=      5-min Rain = 0
KPG1 111808Z 34019G24KT 15/03 A3014 RMK A01 T01480025  RH  044%=      5-min Rain = 0
KPG1 111809Z 34022G28KT 15/03 A3013 RMK A01 T01470025  RH  044%=      5-min Rain = 0
KPG1 111810Z 35018KT 15/02 A3014 RMK A01 T01450024  RH  044%=      5-min Rain = 0
KPG1 111811Z 36016G21KT 15/03 A3014 RMK A01 T01450025  RH  044%=      5-min Rain = 0
KPG1 111812Z 36015G20KT 15/03 A3014 RMK A01 T01470025  RH  044%=      5-min Rain = 0
KPG1 111813Z 00018KT 15/03 A3014 RMK A01 T01480025  RH  043%=      5-min Rain = 0
KPG1 111814Z 00015G23KT 15/03 A3014 RMK A01 T01480025  RH  043%=      5-min Rain = 0
KPG1 111815Z 34020G28KT 15/03 A3014 RMK A01 T01490025  RH  043%=      5-min Rain = 0
KPG1 111816Z 33023KT 15/03 A3013 RMK A01 T01490025  RH  043%=      5-min Rain = 0
KPG1 111817Z 33016KT 15/02 A3014 RMK A01 T01460023  RH  043%=      5-min Rain = 0
KPG1 111818Z 35020KT 15/03 A3014 RMK A01 T01460025  RH  044%=      5-min Rain = 0
KPG1 111819Z 35020G25KT 15/02 A3014 RMK A01 T01480024  RH  043%=      5-min Rain = 0
KPG1 111820Z 35019KT 15/02 A3014 RMK A01 T01470024  RH  043%=      5-min Rain = 0
KPG1 111821Z 35022KT 15/02 A3015 RMK A01 T01480024  RH  043%=      5-min Rain = 0
KPG1 111822Z 35019G24KT 15/02 A3015 RMK A01 T01470024  RH  043%=      5-min Rain = 0
KPG1 111823Z 35020KT 15/02 A3015 RMK A01 T01460023  RH  044%=      5-min Rain = 0
KPG1 111824Z 36019KT 15/02 A3015 RMK A01 T01460024  RH  044%=      5-min Rain = 0
KPG1 111825Z 01017KT 15/03 A3015 RMK A01 T01460025  RH  044%=      5-min Rain = 0
KPG1 111826Z 00020G29KT 15/03 A3015 RMK A01 T01470025  RH  044%=      5-min Rain = 0
KPG1 111827Z 36017G22KT 15/03 A3015 RMK A01 T01460025  RH  044%=      5-min Rain = 0
KPG1 111828Z 35016KT 15/03 A3015 RMK A01 T01470027  RH  044%=      5-min Rain = 0
KPG1 111829Z 36015KT 15/03 A3015 RMK A01 T01480026  RH  044%=      5-min Rain = 0
KPG1 111830Z 34015KT 15/03 A3015 RMK A01 T01490027  RH  044%=      5-min Rain = 0
KPG1 111831Z 34018KT 15/03 A3015 RMK A01 T01490026  RH  044%=      5-min Rain = 0
KPG1 111832Z 35016KT 15/03 A3015 RMK A01 T01480026  RH  044%=      5-min Rain = 0
KPG1 111833Z 36011KT 15/03 A3015 RMK A01 T01480027  RH  044%=      5-min Rain = 0
KPG1 111834Z 35013KT 15/03 A3015 RMK A01 T01490028  RH  044%=      5-min Rain = 0
KPG1 111835Z 01016KT 15/03 A3015 RMK A01 T01500028  RH  044%=      5-min Rain = 0
KPG1 111836Z 01018G24KT 15/03 A3015 RMK A01 T01500028  RH  044%=      5-min Rain = 0
KPG1 111837Z 00016KT 15/03 A3015 RMK A01 T01470027  RH  045%=      5-min Rain = 0
KPG1 111838Z 00017KT 14/03 A3015 RMK A01 T01430027  RH  046%=      5-min Rain = 0
KPG1 111839Z 00014KT 14/03 A3015 RMK A01 T01420028  RH  046%=      5-min Rain = 0
KPG1 111840Z 35014G22KT 14/03 A3015 RMK A01 T01440029  RH  046%=      5-min Rain = 0
KPG1 111841Z 35019KT 14/03 A3015 RMK A01 T01440028  RH  046%=      5-min Rain = 0
KPG1 111842Z 35017G23KT 14/03 A3015 RMK A01 T01420028  RH  046%=      5-min Rain = 0
KPG1 111843Z 01017KT 14/03 A3015 RMK A01 T01420027  RH  046%=      5-min Rain = 0
KPG1 111844Z 00014KT 14/03 A3015 RMK A01 T01430027  RH  046%=      5-min Rain = 0
KPG1 111845Z 01015G21KT 14/03 A3015 RMK A01 T01440026  RH  045%=      5-min Rain = 0
KPG1 111846Z 01016KT 15/03 A3015 RMK A01 T01450026  RH  044%=      5-min Rain = 0
KPG1 111847Z 00015KT 14/02 A3015 RMK A01 T01440024  RH  044%=      5-min Rain = 0
KPG1 111848Z 35019G26KT 14/02 A3015 RMK A01 T01430023  RH  044%=      5-min Rain = 0
KPG1 111849Z 35018G25KT 14/02 A3015 RMK A01 T01400022  RH  045%=      5-min Rain = 0
KPG1 111850Z 35019G24KT 14/02 A3015 RMK A01 T01390021  RH  045%=      5-min Rain = 0
KPG1 111851Z 33015KT 14/02 A3016 RMK A01 T01390020  RH  045%=      5-min Rain = 0
KPG1 111852Z 33015KT 14/02 A3015 RMK A01 T01400022  RH  045%=      5-min Rain = 0
KPG1 111853Z 34011KT 14/02 A3016 RMK A01 T01410022  RH  044%=      5-min Rain = 0
KPG1 111854Z 33014KT 14/02 A3015 RMK A01 T01410021  RH  044%=      5-min Rain = 0
KPG1 111855Z 34013G18KT 14/02 A3015 RMK A01 T01410020  RH  044%=      5-min Rain = 0
KPG1 111856Z 35015G23KT 14/02 A3015 RMK A01 T01420020  RH  044%=      5-min Rain = 0
KPG1 111857Z 35019G24KT 14/02 A3015 RMK A01 T01430018  RH  043%=      5-min Rain = 0
KPG1 111858Z 35016KT 14/02 A3016 RMK A01 T01410018  RH  043%=      5-min Rain = 0
KPG1 111859Z 35017G22KT 14/02 A3015 RMK A01 T01400018  RH  044%=      5-min Rain = 0
KPG1 111900Z 34018G24KT 14/02 A3015 RMK A01 T01400020  RH  044%=      5-min Rain = 0
KPG1 111901Z 33015KT 14/02 A3016 RMK A01 T01400020  RH  044%=      5-min Rain = 0
KPG1 111902Z 35013G18KT 14/02 A3015 RMK A01 T01380019  RH  045%=      5-min Rain = 0
KPG1 111903Z 34012G19KT 14/02 A3015 RMK A01 T01380020  RH  045%=      5-min Rain = 0
KPG1 111904Z 34014G22KT 14/02 A3016 RMK A01 T01410021  RH  044%=      5-min Rain = 0
KPG1 111905Z 34019KT 14/02 A3015 RMK A01 T01420020  RH  044%=      5-min Rain = 0
KPG1 111906Z 35014KT 14/02 A3015 RMK A01 T01410020  RH  044%=      5-min Rain = 0
KPG1 111907Z 34011G16KT 14/02 A3015 RMK A01 T01420020  RH  044%=      5-min Rain = 0
KPG1 111908Z 34013KT 14/02 A3015 RMK A01 T01440021  RH  043%=      5-min Rain = 0
KPG1 111909Z 34018KT 14/02 A3015 RMK A01 T01430019  RH  043%=      5-min Rain = 0
KPG1 111910Z 34010G19KT 14/02 A3015 RMK A01 T01420019  RH  043%=      5-min Rain = 0
KPG1 111911Z 35019G26KT 14/02 A3015 RMK A01 T01420019  RH  043%=      5-min Rain = 0
KPG1 111912Z 35017KT 14/02 A3015 RMK A01 T01430018  RH  043%=      5-min Rain = 0
KPG1 111913Z 35019KT 14/02 A3015 RMK A01 T01420019  RH  043%=      5-min Rain = 0
KPG1 111914Z 34017G23KT 14/02 A3015 RMK A01 T01420019  RH  043%=      5-min Rain = 0
KPG1 111915Z 35018G26KT 14/02 A3015 RMK A01 T01410019  RH  043%=      5-min Rain = 0
KPG1 111916Z 35021G26KT 14/02 A3015 RMK A01 T01390019  RH  044%=      5-min Rain = 0
KPG1 111917Z 35019KT 14/02 A3015 RMK A01 T01400019  RH  044%=      5-min Rain = 0
KPG1 111918Z 35018G24KT 14/02 A3016 RMK A01 T01400018  RH  044%=      5-min Rain = 0
KPG1 111919Z 35021G27KT 14/02 A3015 RMK A01 T01390018  RH  044%=      5-min Rain = 0
KPG1 111920Z 00018G23KT 14/02 A3015 RMK A01 T01380018  RH  044%=      5-min Rain = 0
KPG1 111921Z 36023G32KT 14/02 A3015 RMK A01 T01400016  RH  043%=      5-min Rain = 0
KPG1 111922Z 35019G24KT 14/01 A3016 RMK A01 T01410012  RH  042%=      5-min Rain = 0
KPG1 111923Z 35019G27KT 14/01 A3016 RMK A01 T01410012  RH  041%=      5-min Rain = 0
KPG1 111924Z 35022G27KT 14/01 A3016 RMK A01 T01410013  RH  042%=      5-min Rain = 0
KPG1 111925Z 35015KT 14/01 A3016 RMK A01 T01390012  RH  042%=      5-min Rain = 0
KPG1 111926Z 34019G24KT 14/01 A3016 RMK A01 T01380013  RH  043%=      5-min Rain = 0
KPG1 111927Z 35018G24KT 14/01 A3016 RMK A01 T01390013  RH  042%=      5-min Rain = 0
KPG1 111928Z 34019G26KT 14/01 A3016 RMK A01 T01380013  RH  042%=      5-min Rain = 0
KPG1 111929Z 33017G22KT 14/01 A3016 RMK A01 T01380014  RH  043%=      5-min Rain = 0
KPG1 111930Z 34017KT 14/01 A3016 RMK A01 T01380013  RH  043%=      5-min Rain = 0
KPG1 111931Z 34016KT 14/01 A3016 RMK A01 T01380013  RH  043%=      5-min Rain = 0
KPG1 111932Z 34014KT 14/01 A3016 RMK A01 T01390014  RH  043%=      5-min Rain = 0
KPG1 111933Z 34017G22KT 14/01 A3016 RMK A01 T01380013  RH  043%=      5-min Rain = 0
KPG1 111934Z 34018G23KT 14/01 A3016 RMK A01 T01390014  RH  043%=      5-min Rain = 0
KPG1 111935Z 34017G22KT 14/02 A3016 RMK A01 T01380015  RH  043%=      5-min Rain = 0
KPG1 111936Z 34020G25KT 14/02 A3016 RMK A01 T01390016  RH  043%=      5-min Rain = 0
KPG1 111937Z 34014G19KT 14/02 A3016 RMK A01 T01380015  RH  043%=      5-min Rain = 0
KPG1 111938Z 35017G22KT 14/02 A3016 RMK A01 T01370015  RH  043%=      5-min Rain = 0
KPG1 111939Z 33018G23KT 14/02 A3016 RMK A01 T01380015  RH  043%=      5-min Rain = 0
KPG1 111940Z 35021KT 14/01 A3016 RMK A01 T01370014  RH  043%=      5-min Rain = 0
KPG1 111941Z 34019KT 14/02 A3016 RMK A01 T01360015  RH  044%=      5-min Rain = 0
KPG1 111942Z 34020KT 14/02 A3016 RMK A01 T01360016  RH  044%=      5-min Rain = 0
KPG1 111943Z 34022G27KT 14/02 A3016 RMK A01 T01360016  RH  044%=      5-min Rain = 0
KPG1 111944Z 35019KT 13/02 A3016 RMK A01 T01340015  RH  044%=      5-min Rain = 0
KPG1 111945Z 01017KT 13/02 A3016 RMK A01 T01340017  RH  045%=      5-min Rain = 0
KPG1 111946Z 36016G23KT 14/02 A3016 RMK A01 T01360017  RH  045%=      5-min Rain = 0
KPG1 111947Z 35020G26KT 14/02 A3016 RMK A01 T01370017  RH  044%=      5-min Rain = 0
KPG1 111948Z 35019G25KT 14/02 A3016 RMK A01 T01380017  RH  044%=      5-min Rain = 0
KPG1 111949Z 35019G25KT 14/02 A3016 RMK A01 T01360016  RH  044%=      5-min Rain = 0
KPG1 111950Z 35016G21KT 14/02 A3016 RMK A01 T01350015  RH  044%=      5-min Rain = 0
KPG1 111951Z 35019KT 14/02 A3016 RMK A01 T01350015  RH  044%=      5-min Rain = 0
KPG1 111952Z 34017G25KT 14/02 A3016 RMK A01 T01360015  RH  044%=      5-min Rain = 0
KPG1 111953Z 35017G23KT 14/01 A3016 RMK A01 T01360014  RH  044%=      5-min Rain = 0
KPG1 111954Z 34014G19KT 14/02 A3016 RMK A01 T01370015  RH  044%=      5-min Rain = 0
KPG1 111955Z 35017KT 14/02 A3016 RMK A01 T01370015  RH  044%=      5-min Rain = 0
KPG1 111956Z 35018KT 14/02 A3016 RMK A01 T01380016  RH  043%=      5-min Rain = 0
KPG1 111957Z 35020KT 14/02 A3015 RMK A01 T01390015  RH  043%=      5-min Rain = 0
KPG1 111958Z 36020KT 14/01 A3016 RMK A01 T01370014  RH  043%=      5-min Rain = 0
KPG1 111959Z 35019KT 14/01 A3016 RMK A01 T01360014  RH  043%=      5-min Rain = 0
KPG1 112000Z 34021KT 14/01 A3015 RMK A01 T01370013  RH  043%=      5-min Rain = 0
KPG1 112001Z 01017G25KT 14/01 A3016 RMK A01 T01360012  RH  043%=      5-min Rain = 0
KPG1 112002Z 01023KT 14/01 A3016 RMK A01 T01360013  RH  043%=      5-min Rain = 0
KPG1 112003Z 00021G26KT 14/01 A3016 RMK A01 T01350012  RH  043%=      5-min Rain = 0
KPG1 112004Z 35019G24KT 14/01 A3016 RMK A01 T01350013  RH  043%=      5-min Rain = 0
KPG1 112005Z 02015G20KT 14/01 A3016 RMK A01 T01350013  RH  043%=      5-min Rain = 0
KPG1 112006Z 01019G26KT 14/01 A3016 RMK A01 T01370013  RH  043%=      5-min Rain = 0
KPG1 112007Z 00023KT 14/01 A3016 RMK A01 T01360012  RH  043%=      5-min Rain = 0
KPG1 112008Z 01019KT 14/01 A3016 RMK A01 T01350012  RH  043%=      5-min Rain = 0
KPG1 112009Z 01016G21KT 14/01 A3016 RMK A01 T01360012  RH  043%=      5-min Rain = 0
KPG1 112010Z 01016G22KT 14/01 A3016 RMK A01 T01350012  RH  043%=      5-min Rain = 0
KPG1 112011Z 01021KT 13/01 A3016 RMK A01 T01340012  RH  043%=      5-min Rain = 0
KPG1 112012Z 01021KT 13/01 A3016 RMK A01 T01330011  RH  043%=      5-min Rain = 0
KPG1 112013Z 00020G25KT 13/01 A3016 RMK A01 T01330011  RH  043%=      5-min Rain = 0
KPG1 112014Z 35023KT 13/01 A3016 RMK A01 T01340010  RH  043%=      5-min Rain = 0
KPG1 112015Z 35022KT 14/01 A3016 RMK A01 T01350010  RH  042%=      5-min Rain = 0
KPG1 112016Z 35022G29KT 14/01 A3016 RMK A01 T01350010  RH  042%=      5-min Rain = 0
KPG1 112017Z 35024KT 14/01 A3016 RMK A01 T01360010  RH  042%=      5-min Rain = 0
KPG1 112018Z 35020KT 14/01 A3016 RMK A01 T01350011  RH  043%=      5-min Rain = 0
KPG1 112019Z 35022G27KT 14/01 A3016 RMK A01 T01350011  RH  043%=      5-min Rain = 0
KPG1 112020Z 34020KT 14/01 A3016 RMK A01 T01350010  RH  042%=      5-min Rain = 0
KPG1 112021Z 35016G21KT 13/01 A3016 RMK A01 T01340009  RH  042%=      5-min Rain = 0
KPG1 112022Z 36018G24KT 13/01 A3016 RMK A01 T01340010  RH  043%=      5-min Rain = 0
KPG1 112023Z 35021G27KT 14/01 A3016 RMK A01 T01360011  RH  042%=      5-min Rain = 0
KPG1 112024Z 33017KT 14/01 A3016 RMK A01 T01360010  RH  042%=      5-min Rain = 0
KPG1 112025Z 36020KT 14/01 A3017 RMK A01 T01350010  RH  042%=      5-min Rain = 0
KPG1 112026Z 00015G20KT 13/01 A3017 RMK A01 T01340009  RH  043%=      5-min Rain = 0
KPG1 112027Z 35015KT 14/01 A3017 RMK A01 T01350011  RH  043%=      5-min Rain = 0
KPG1 112028Z 36017G22KT 14/01 A3017 RMK A01 T01380011  RH  042%=      5-min Rain = 0
KPG1 112029Z 35019G24KT 14/01 A3017 RMK A01 T01370010  RH  042%=      5-min Rain = 0
KPG1 112030Z 34017G24KT 14/01 A3017 RMK A01 T01360010  RH  042%=      5-min Rain = 0
KPG1 112031Z 34018G25KT 13/01 A3017 RMK A01 T01340010  RH  043%=      5-min Rain = 0
KPG1 112032Z 00017G22KT 14/01 A3017 RMK A01 T01350010  RH  043%=      5-min Rain = 0
KPG1 112033Z 00017G23KT 14/01 A3017 RMK A01 T01370010  RH  042%=      5-min Rain = 0
KPG1 112034Z 35015KT 14/01 A3017 RMK A01 T01380010  RH  042%=      5-min Rain = 0
KPG1 112035Z 35017G22KT 14/01 A3017 RMK A01 T01400010  RH  041%=      5-min Rain = 0
KPG1 112036Z 34021KT 14/01 A3017 RMK A01 T01410008  RH  040%=      5-min Rain = 0
KPG1 112037Z 35022KT 14/01 A3016 RMK A01 T01380006  RH  041%=      5-min Rain = 0
KPG1 112038Z 35021G27KT 14/01 A3016 RMK A01 T01370007  RH  041%=      5-min Rain = 0
KPG1 112039Z 01020G26KT 14/01 A3017 RMK A01 T01350007  RH  042%=      5-min Rain = 0
KPG1 112040Z 00022KT 14/01 A3017 RMK A01 T01360008  RH  042%=      5-min Rain = 0
KPG1 112041Z 01019KT 14/01 A3017 RMK A01 T01350007  RH  042%=      5-min Rain = 0
KPG1 112042Z 00015KT 13/01 A3017 RMK A01 T01330007  RH  042%=      5-min Rain = 0
KPG1 112043Z 35013G18KT 13/01 A3017 RMK A01 T01330008  RH  042%=      5-min Rain = 0
KPG1 112044Z 36015G23KT 14/01 A3017 RMK A01 T01350009  RH  042%=      5-min Rain = 0
KPG1 112045Z 35019KT 14/01 A3017 RMK A01 T01350008  RH  042%=      5-min Rain = 0
KPG1 112046Z 35015G21KT 13/01 A3017 RMK A01 T01340008  RH  042%=      5-min Rain = 0
KPG1 112047Z 01017G22KT 14/01 A3017 RMK A01 T01360009  RH  042%=      5-min Rain = 0
KPG1 112048Z 00019KT 14/01 A3017 RMK A01 T01360009  RH  042%=      5-min Rain = 0
KPG1 112049Z 34013KT 14/01 A3017 RMK A01 T01350008  RH  042%=      5-min Rain = 0
KPG1 112050Z 36014G19KT 14/01 A3017 RMK A01 T01380010  RH  042%=      5-min Rain = 0
KPG1 112051Z 00015KT 14/01 A3017 RMK A01 T01400009  RH  041%=      5-min Rain = 0
KPG1 112052Z 00014KT 14/01 A3018 RMK A01 T01410009  RH  041%=      5-min Rain = 0
KPG1 112053Z 00017KT 14/01 A3018 RMK A01 T01410008  RH  040%=      5-min Rain = 0
KPG1 112054Z 01018KT 14/01 A3018 RMK A01 T01390006  RH  040%=      5-min Rain = 0
KPG1 112055Z 01013KT 14/01 A3018 RMK A01 T01360006  RH  041%=      5-min Rain = 0
KPG1 112056Z 00012KT 14/01 A3018 RMK A01 T01360006  RH  041%=      5-min Rain = 0
KPG1 112057Z 35011KT 14/01 A3018 RMK A01 T01370007  RH  041%=      5-min Rain = 0
KPG1 112058Z 35015KT 14/01 A3018 RMK A01 T01400008  RH  041%=      5-min Rain = 0
KPG1 112059Z 36014KT 14/01 A3018 RMK A01 T01410006  RH  040%=      5-min Rain = 0
KPG1 112100Z 00013KT 14/01 A3018 RMK A01 T01380005  RH  040%=      5-min Rain = 0
KPG1 112101Z 35011KT 14/01 A3018 RMK A01 T01390007  RH  040%=      5-min Rain = 0
KPG1 112102Z 34013KT 14/01 A3018 RMK A01 T01400007  RH  040%=      5-min Rain = 0
KPG1 112103Z 34014KT 14/01 A3018 RMK A01 T01400006  RH  040%=      5-min Rain = 0
KPG1 112104Z 35014KT 14/00 A3018 RMK A01 T01390004  RH  040%=      5-min Rain = 0
KPG1 112105Z 35012KT 14/00 A3018 RMK A01 T01400004  RH  039%=      5-min Rain = 0
KPG1 112106Z 00012KT 14/00 A3018 RMK A01 T01410004  RH  039%=      5-min Rain = 0
KPG1 112107Z 01017KT 14/00 A3018 RMK A01 T01420003  RH  038%=      5-min Rain = 0
KPG1 112108Z 01017G22KT 14/00 A3018 RMK A01 T01420001  RH  038%=      5-min Rain = 0
KPG1 112109Z 00014KT 14/00 A3018 RMK A01 T01410000  RH  038%=      5-min Rain = 0
KPG1 112110Z 35020KT 14/00 A3018 RMK A01 T01410000  RH  038%=      5-min Rain = 0
KPG1 112111Z 36015G20KT 14/00 A3019 RMK A01 T01390000  RH  039%=      5-min Rain = 0
KPG1 112112Z 01012KT 14/00 A3018 RMK A01 T01380000  RH  039%=      5-min Rain = 0
KPG1 112113Z 01011KT 14/00 A3018 RMK A01 T01380000  RH  039%=      5-min Rain = 0
KPG1 112114Z 02013KT 14/00 A3018 RMK A01 T01390001  RH  039%=      5-min Rain = 0
KPG1 112115Z 00014KT 14/00 A3018 RMK A01 T01400000  RH  038%=      5-min Rain = 0
KPG1 112116Z 01012KT 14/00 A3018 RMK A01 T01410001  RH  038%=      5-min Rain = 0
KPG1 112117Z 35008G14KT 14/00 A3018 RMK A01 T014200-0  RH  038%=      5-min Rain = 0
KPG1 112118Z 34018KT 14/M00 A3018 RMK A01 T01441001  RH  037%=      5-min Rain = 0
KPG1 112119Z 33016KT 14/M00 A3018 RMK A01 T01411004  RH  037%=      5-min Rain = 0
KPG1 112120Z 35017KT 14/M00 A3018 RMK A01 T01401004  RH  037%=      5-min Rain = 0
KPG1 112121Z 34014KT 14/M00 A3018 RMK A01 T01401004  RH  037%=      5-min Rain = 0
KPG1 112122Z 34014KT 14/M00 A3018 RMK A01 T01401004  RH  037%=      5-min Rain = 0
KPG1 112123Z 35015KT 14/M00 A3018 RMK A01 T01411003  RH  037%=      5-min Rain = 0
KPG1 112124Z 00015KT 14/M00 A3018 RMK A01 T01421003  RH  037%=      5-min Rain = 0
KPG1 112125Z 01012KT 14/M00 A3018 RMK A01 T01421003  RH  037%=      5-min Rain = 0
KPG1 112126Z 01012KT 14/M00 A3018 RMK A01 T01441002  RH  037%=      5-min Rain = 0
KPG1 112127Z 01013KT 15/M00 A3018 RMK A01 T01451003  RH  036%=      5-min Rain = 0
KPG1 112128Z 00011KT 15/M00 A3018 RMK A01 T01451004  RH  036%=      5-min Rain = 0
KPG1 112129Z 01013KT 15/M01 A3018 RMK A01 T01451005  RH  036%=      5-min Rain = 0
KPG1 112130Z 36011KT 14/M01 A3018 RMK A01 T01431006  RH  036%=      5-min Rain = 0
KPG1 112131Z 35014KT 14/M01 A3018 RMK A01 T01431007  RH  036%=      5-min Rain = 0
KPG1 112132Z 35011KT 14/M01 A3018 RMK A01 T01411008  RH  036%=      5-min Rain = 0
KPG1 112133Z 35015G21KT 14/M01 A3018 RMK A01 T01421007  RH  036%=      5-min Rain = 0
KPG1 112134Z 34014G19KT 14/M01 A3018 RMK A01 T01431007  RH  036%=      5-min Rain = 0
KPG1 112135Z 34016KT 14/M01 A3019 RMK A01 T01431007  RH  036%=      5-min Rain = 0
KPG1 112136Z 35014KT 14/M01 A3019 RMK A01 T01421008  RH  036%=      5-min Rain = 0
KPG1 112137Z 00012KT 14/M01 A3019 RMK A01 T01411008  RH  036%=      5-min Rain = 0
KPG1 112138Z 00014KT 14/M01 A3019 RMK A01 T01431008  RH  036%=      5-min Rain = 0
KPG1 112139Z 34015KT 14/M01 A3019 RMK A01 T01441009  RH  035%=      5-min Rain = 0
KPG1 112140Z 34017KT 14/M01 A3019 RMK A01 T01421011  RH  035%=      5-min Rain = 0
KPG1 112141Z 34013KT 14/M01 A3019 RMK A01 T01411011  RH  035%=      5-min Rain = 0
KPG1 112142Z 34014KT 14/M01 A3019 RMK A01 T01411010  RH  035%=      5-min Rain = 0
KPG1 112143Z 35015KT 14/M01 A3019 RMK A01 T01441009  RH  035%=      5-min Rain = 0
KPG1 112144Z 34014KT 15/M01 A3019 RMK A01 T01451011  RH  034%=      5-min Rain = 0
KPG1 112145Z 35017KT 14/M01 A3019 RMK A01 T01441012  RH  034%=      5-min Rain = 0
KPG1 112146Z 34016KT 14/M01 A3019 RMK A01 T01411014  RH  034%=      5-min Rain = 0
KPG1 112147Z 35014KT 14/M01 A3019 RMK A01 T01411013  RH  035%=      5-min Rain = 0
KPG1 112148Z 34017KT 14/M01 A3019 RMK A01 T01421013  RH  034%=      5-min Rain = 0
KPG1 112149Z 34018KT 14/M01 A3019 RMK A01 T01421014  RH  034%=      5-min Rain = 0
KPG1 112150Z 33014KT 14/M02 A3019 RMK A01 T01401015  RH  034%=      5-min Rain = 0
KPG1 112151Z 35015KT 14/M01 A3019 RMK A01 T01401014  RH  035%=      5-min Rain = 0
KPG1 112152Z 35017KT 14/M01 A3019 RMK A01 T01411012  RH  035%=      5-min Rain = 0
KPG1 112153Z 34013KT 14/M01 A302 RMK A01 T01401012  RH  035%=      5-min Rain = 0
KPG1 112154Z 35012G17KT 14/M01 A3019 RMK A01 T01411012  RH  035%=      5-min Rain = 0
KPG1 112155Z 34016KT 14/M01 A3019 RMK A01 T01421013  RH  034%=      5-min Rain = 0
KPG1 112156Z 34013G20KT 14/M02 A3019 RMK A01 T01411015  RH  034%=      5-min Rain = 0
KPG1 112157Z 34017KT 14/M02 A3019 RMK A01 T01411015  RH  034%=      5-min Rain = 0
KPG1 112158Z 34016KT 14/M02 A3019 RMK A01 T01401016  RH  034%=      5-min Rain = 0
KPG1 112159Z 34016G21KT 14/M02 A3019 RMK A01 T01391016  RH  034%=      5-min Rain = 0
KPG1 112200Z 34016KT 14/M02 A302 RMK A01 T01381016  RH  034%=      5-min Rain = 0
KPG1 112201Z 34017KT 14/M02 A302 RMK A01 T01381015  RH  035%=      5-min Rain = 0
KPG1 112202Z 33016KT 14/M02 A302 RMK A01 T01381016  RH  035%=      5-min Rain = 0
KPG1 112203Z 35012KT 14/M02 A302 RMK A01 T01381015  RH  035%=      5-min Rain = 0
KPG1 112204Z 35012KT 14/M01 A302 RMK A01 T01391014  RH  035%=      5-min Rain = 0
KPG1 112205Z 35013KT 14/M01 A302 RMK A01 T01411013  RH  035%=      5-min Rain = 0
KPG1 112206Z 34011KT 14/M01 A302 RMK A01 T01421013  RH  034%=      5-min Rain = 0
KPG1 112207Z 35014KT 14/M01 A302 RMK A01 T01421013  RH  034%=      5-min Rain = 0
KPG1 112208Z 34016KT 14/M02 A302 RMK A01 T01411015  RH  034%=      5-min Rain = 0
KPG1 112209Z 34015KT 14/M02 A302 RMK A01 T01391015  RH  034%=      5-min Rain = 0
KPG1 112210Z 34017KT 14/M02 A302 RMK A01 T01391015  RH  035%=      5-min Rain = 0
KPG1 112211Z 34014KT 14/M02 A302 RMK A01 T01371016  RH  035%=      5-min Rain = 0
KPG1 112212Z 35014KT 14/M02 A302 RMK A01 T01371015  RH  035%=      5-min Rain = 0
KPG1 112213Z 34015G25KT 14/M02 A302 RMK A01 T01371015  RH  035%=      5-min Rain = 0
KPG1 112214Z 35017G24KT 14/M02 A302 RMK A01 T01391019  RH  034%=      5-min Rain = 0
KPG1 112215Z 00015KT 14/M02 A302 RMK A01 T01401021  RH  033%=      5-min Rain = 0
KPG1 112216Z 01017G22KT 14/M02 A302 RMK A01 T01411023  RH  032%=      5-min Rain = 0
KPG1 112217Z 01019KT 14/M03 A302 RMK A01 T01401025  RH  032%=      5-min Rain = 0
KPG1 112218Z 00017G22KT 14/M02 A302 RMK A01 T01391024  RH  032%=      5-min Rain = 0
KPG1 112219Z 00014KT 14/M03 A302 RMK A01 T01391026  RH  032%=      5-min Rain = 0
KPG1 112220Z 00014KT 14/M03 A302 RMK A01 T01401027  RH  031%=      5-min Rain = 0
KPG1 112221Z 00016KT 14/M03 A302 RMK A01 T01411028  RH  031%=      5-min Rain = 0
KPG1 112222Z 36014KT 14/M03 A302 RMK A01 T01411027  RH  031%=      5-min Rain = 0
KPG1 112223Z 36014KT 14/M03 A3021 RMK A01 T01401027  RH  031%=      5-min Rain = 0
KPG1 112224Z 01014KT 14/M03 A3021 RMK A01 T01401027  RH  031%=      5-min Rain = 0
KPG1 112225Z 35014KT 14/M03 A3021 RMK A01 T01401026  RH  032%=      5-min Rain = 0
KPG1 112226Z 01013G18KT 14/M02 A3021 RMK A01 T01391023  RH  032%=      5-min Rain = 0
KPG1 112227Z 00018KT 14/M02 A3021 RMK A01 T01391024  RH  032%=      5-min Rain = 0
KPG1 112228Z 36015KT 14/M02 A3021 RMK A01 T01381024  RH  032%=      5-min Rain = 0
KPG1 112229Z 00017G22KT 14/M02 A3021 RMK A01 T01381024  RH  032%=      5-min Rain = 0
KPG1 112230Z 01014G20KT 14/M03 A3021 RMK A01 T01361027  RH  032%=      5-min Rain = 0
KPG1 112231Z 36015KT 14/M03 A3021 RMK A01 T01351027  RH  032%=      5-min Rain = 0
KPG1 112232Z 00017G22KT 14/M03 A3021 RMK A01 T01351027  RH  032%=      5-min Rain = 0
KPG1 112233Z 01014G20KT 14/M02 A3021 RMK A01 T01361024  RH  033%=      5-min Rain = 0
KPG1 112234Z 01012KT 14/M03 A3021 RMK A01 T01361025  RH  033%=      5-min Rain = 0
KPG1 112235Z 02014G19KT 14/M03 A3021 RMK A01 T01371026  RH  032%=      5-min Rain = 0
KPG1 112236Z 02016G21KT 14/M03 A3021 RMK A01 T01371028  RH  032%=      5-min Rain = 0
KPG1 112237Z 00015KT 14/M03 A3021 RMK A01 T01361028  RH  032%=      5-min Rain = 0
KPG1 112238Z 02014G20KT 14/M03 A3021 RMK A01 T01361025  RH  033%=      5-min Rain = 0
KPG1 112239Z 02012G17KT 14/M02 A3021 RMK A01 T01361024  RH  033%=      5-min Rain = 0
KPG1 112240Z 02013G19KT 14/M02 A3022 RMK A01 T01361023  RH  033%=      5-min Rain = 0
KPG1 112241Z 02015KT 14/M02 A3022 RMK A01 T01361022  RH  033%=      5-min Rain = 0
KPG1 112242Z 02015KT 14/M02 A3022 RMK A01 T01361021  RH  033%=      5-min Rain = 0
KPG1 112243Z 00012KT 14/M02 A3022 RMK A01 T01361020  RH  034%=      5-min Rain = 0
KPG1 112244Z 00012KT 14/M02 A3022 RMK A01 T01371018  RH  034%=      5-min Rain = 0
KPG1 112245Z 02012KT 14/M02 A3022 RMK A01 T01371017  RH  034%=      5-min Rain = 0
KPG1 112246Z 00010KT 14/M02 A3022 RMK A01 T01371018  RH  034%=      5-min Rain = 0
KPG1 112247Z 00012KT 14/M02 A3022 RMK A01 T01371017  RH  035%=      5-min Rain = 0
KPG1 112248Z 01012KT 14/M02 A3022 RMK A01 T01361017  RH  035%=      5-min Rain = 0
KPG1 112249Z 00011KT 14/M02 A3022 RMK A01 T01351017  RH  035%=      5-min Rain = 0
KPG1 112250Z 35011KT 14/M02 A3022 RMK A01 T01361016  RH  035%=      5-min Rain = 0
KPG1 112251Z 01013KT 14/M02 A3022 RMK A01 T01371016  RH  035%=      5-min Rain = 0
KPG1 112252Z 36014KT 14/M02 A3022 RMK A01 T01361016  RH  035%=      5-min Rain = 0
KPG1 112253Z 35011KT 14/M02 A3022 RMK A01 T01361016  RH  035%=      5-min Rain = 0
KPG1 112254Z 35012KT 14/M02 A3022 RMK A01 T01361015  RH  035%=      5-min Rain = 0
KPG1 112255Z 01011KT 14/M02 A3022 RMK A01 T01351016  RH  035%=      5-min Rain = 0
KPG1 112256Z 35010KT 14/M02 A3022 RMK A01 T01351015  RH  035%=      5-min Rain = 0
KPG1 112257Z 35010KT 14/M01 A3022 RMK A01 T01351014  RH  036%=      5-min Rain = 0
KPG1 112258Z 35013KT 14/M01 A3022 RMK A01 T01361014  RH  036%=      5-min Rain = 0
KPG1 112259Z 35013KT 14/M02 A3022 RMK A01 T01351015  RH  035%=      5-min Rain = 0
KPG1 112300Z 00010KT 13/M02 A3022 RMK A01 T01341016  RH  035%=      5-min Rain = 0
KPG1 112301Z 00015KT 14/M02 A3022 RMK A01 T01351016  RH  035%=      5-min Rain = 0
KPG1 112302Z 00012KT 14/M02 A3022 RMK A01 T01351016  RH  035%=      5-min Rain = 0
KPG1 112303Z 02015KT 13/M02 A3022 RMK A01 T01331016  RH  035%=      5-min Rain = 0
KPG1 112304Z 01011KT 13/M02 A3022 RMK A01 T01341016  RH  036%=      5-min Rain = 0
KPG1 112305Z 01014KT 14/M02 A3022 RMK A01 T01351015  RH  035%=      5-min Rain = 0
KPG1 112306Z 36011KT 13/M02 A3023 RMK A01 T01341015  RH  036%=      5-min Rain = 0
KPG1 112307Z 36013KT 13/M02 A3022 RMK A01 T01341015  RH  036%=      5-min Rain = 0
KPG1 112308Z 01011KT 13/M02 A3023 RMK A01 T01331015  RH  036%=      5-min Rain = 0
KPG1 112309Z 36011KT 13/M02 A3023 RMK A01 T01321015  RH  036%=      5-min Rain = 0
KPG1 112310Z 35011KT 13/M01 A3023 RMK A01 T01331014  RH  036%=      5-min Rain = 0
KPG1 112311Z 34013KT 13/M01 A3023 RMK A01 T01321013  RH  037%=      5-min Rain = 0
KPG1 112312Z 34012KT 13/M01 A3023 RMK A01 T01311013  RH  037%=      5-min Rain = 0
KPG1 112313Z 35010KT 13/M01 A3023 RMK A01 T01301013  RH  037%=      5-min Rain = 0
KPG1 112314Z 00010KT 13/M01 A3023 RMK A01 T01301013  RH  037%=      5-min Rain = 0
KPG1 112315Z 02011KT 13/M01 A3023 RMK A01 T01311013  RH  037%=      5-min Rain = 0
KPG1 112316Z 01010KT 13/M01 A3023 RMK A01 T01311013  RH  037%=      5-min Rain = 0
KPG1 112317Z 01011KT 13/M01 A3023 RMK A01 T01311013  RH  037%=      5-min Rain = 0
KPG1 112318Z 01010KT 13/M01 A3023 RMK A01 T01311013  RH  037%=      5-min Rain = 0
KPG1 112319Z 36011KT 13/M01 A3023 RMK A01 T01311014  RH  037%=      5-min Rain = 0
KPG1 112320Z 35012KT 13/M02 A3023 RMK A01 T01311015  RH  037%=      5-min Rain = 0
KPG1 112321Z 35011KT 13/M02 A3023 RMK A01 T01311015  RH  036%=      5-min Rain = 0
KPG1 112322Z 00007KT 13/M02 A3023 RMK A01 T01311015  RH  036%=      5-min Rain = 0
KPG1 112323Z 01010KT 13/M02 A3023 RMK A01 T01311015  RH  036%=      5-min Rain = 0
KPG1 112324Z 36010KT 13/M02 A3023 RMK A01 T01311015  RH  036%=      5-min Rain = 0
KPG1 112325Z 02012KT 13/M02 A3023 RMK A01 T01321015  RH  036%=      5-min Rain = 0
KPG1 112326Z 02012KT 13/M01 A3023 RMK A01 T01311014  RH  036%=      5-min Rain = 0
KPG1 112327Z 02011KT 13/M02 A3023 RMK A01 T01311015  RH  036%=      5-min Rain = 0
KPG1 112328Z 02011KT 13/M02 A3023 RMK A01 T01311016  RH  036%=      5-min Rain = 0
KPG1 112329Z 02012KT 13/M02 A3023 RMK A01 T01301017  RH  036%=      5-min Rain = 0
KPG1 112330Z 02012KT 13/M02 A3023 RMK A01 T01291017  RH  036%=      5-min Rain = 0
KPG1 112331Z 02012KT 13/M02 A3023 RMK A01 T01291017  RH  036%=      5-min Rain = 0
KPG1 112332Z 02012G17KT 13/M02 A3023 RMK A01 T01291017  RH  036%=      5-min Rain = 0
KPG1 112333Z 01010KT 13/M02 A3023 RMK A01 T01291017  RH  036%=      5-min Rain = 0
KPG1 112334Z 00010KT 13/M02 A3023 RMK A01 T01281016  RH  037%=      5-min Rain = 0
KPG1 112335Z 01009KT 13/M02 A3023 RMK A01 T01281015  RH  037%=      5-min Rain = 0
KPG1 112336Z 02010KT 13/M02 A3023 RMK A01 T01281015  RH  037%=      5-min Rain = 0
KPG1 112337Z 01013KT 13/M02 A3023 RMK A01 T01281017  RH  037%=      5-min Rain = 0
KPG1 112338Z 01012KT 13/M02 A3023 RMK A01 T01281016  RH  037%=      5-min Rain = 0
KPG1 112339Z 00013KT 13/M02 A3023 RMK A01 T01271016  RH  037%=      5-min Rain = 0
KPG1 112340Z 00011KT 13/M02 A3023 RMK A01 T01261016  RH  037%=      5-min Rain = 0
KPG1 112341Z 00011KT 13/M02 A3023 RMK A01 T01261015  RH  037%=      5-min Rain = 0
KPG1 112342Z 01012KT 13/M02 A3023 RMK A01 T01271015  RH  037%=      5-min Rain = 0
KPG1 112343Z 36010KT 13/M02 A3023 RMK A01 T01261015  RH  038%=      5-min Rain = 0
KPG1 112344Z 01011KT 13/M01 A3023 RMK A01 T01261014  RH  038%=      5-min Rain = 0
KPG1 112345Z 01013KT 13/M01 A3023 RMK A01 T01261014  RH  038%=      5-min Rain = 0
KPG1 112346Z 36013KT 13/M01 A3023 RMK A01 T01251014  RH  038%=      5-min Rain = 0
KPG1 112347Z 00012KT 13/M02 A3023 RMK A01 T01251015  RH  038%=      5-min Rain = 0
KPG1 112348Z 36009KT 13/M02 A3023 RMK A01 T01251015  RH  038%=      5-min Rain = 0
KPG1 112349Z 00011KT 13/M02 A3023 RMK A01 T01251015  RH  038%=      5-min Rain = 0
KPG1 112350Z 01009KT 13/M01 A3023 RMK A01 T01251014  RH  038%=      5-min Rain = 0
KPG1 112351Z 01009KT 13/M02 A3023 RMK A01 T01251015  RH  038%=      5-min Rain = 0
KPG1 112352Z 02010KT 12/M01 A3023 RMK A01 T01241014  RH  038%=      5-min Rain = 0
KPG1 112353Z 02007KT 12/M01 A3023 RMK A01 T01241014  RH  038%=      5-min Rain = 0
KPG1 112354Z 01009KT 12/M01 A3024 RMK A01 T01241013  RH  039%=      5-min Rain = 0
KPG1 112355Z 02008KT 12/M01 A3024 RMK A01 T01231013  RH  039%=      5-min Rain = 0
KPG1 112356Z 02009KT 12/M01 A3024 RMK A01 T01231012  RH  039%=      5-min Rain = 0
KPG1 112357Z 02008KT 12/M01 A3024 RMK A01 T01231012  RH  039%=      5-min Rain = 0
KPG1 112358Z 03008KT 12/M01 A3024 RMK A01 T01231012  RH  039%=      5-min Rain = 0
KPG1 112359Z 01008KT 12/M01 A3024 RMK A01 T01221013  RH  039%=      5-min Rain = 0
KPG1 120000Z 02008KT 12/M01 A3024 RMK A01 T01221014  RH  039%=      5-min Rain = 0
KPG1 120001Z 02006KT 12/M01 A3024 RMK A01 T01221014  RH  039%=      5-min Rain = 0
KPG1 120002Z 03005KT 12/M01 A3024 RMK A01 T01221014  RH  039%=      5-min Rain = 0
KPG1 120003Z 03006KT 12/M01 A3024 RMK A01 T01211014  RH  039%=      5-min Rain = 0
KPG1 120004Z 03006KT 12/M01 A3024 RMK A01 T01201014  RH  039%=      5-min Rain = 0
KPG1 120005Z 03005KT 12/M01 A3024 RMK A01 T01201013  RH  040%=      5-min Rain = 0
KPG1 120006Z 02006KT 12/M01 A3024 RMK A01 T01191013  RH  040%=      5-min Rain = 0
KPG1 120007Z 03007KT 12/M01 A3024 RMK A01 T01191013  RH  040%=      5-min Rain = 0
KPG1 120008Z 03006KT 12/M01 A3024 RMK A01 T01181012  RH  040%=      5-min Rain = 0
KPG1 120009Z 03008KT 12/M01 A3024 RMK A01 T01181011  RH  041%=      5-min Rain = 0
KPG1 120010Z 04009KT 12/M01 A3024 RMK A01 T01171011  RH  041%=      5-min Rain = 0
KPG1 120011Z 03011KT 12/M01 A3024 RMK A01 T01171011  RH  041%=      5-min Rain = 0
KPG1 120012Z 03010KT 12/M01 A3024 RMK A01 T01171013  RH  040%=      5-min Rain = 0
KPG1 120013Z 03010KT 12/M01 A3024 RMK A01 T01171013  RH  040%=      5-min Rain = 0
KPG1 120014Z 03009KT 12/M01 A3024 RMK A01 T01171013  RH  040%=      5-min Rain = 0
KPG1 120015Z 03008KT 12/M01 A3024 RMK A01 T01171014  RH  040%=      5-min Rain = 0
KPG1 120016Z 03009KT 12/M01 A3024 RMK A01 T01161014  RH  040%=      5-min Rain = 0
KPG1 120017Z 03008KT 12/M01 A3024 RMK A01 T01161014  RH  041%=      5-min Rain = 0
KPG1 120018Z 03009KT 12/M01 A3024 RMK A01 T01151014  RH  041%=      5-min Rain = 0
KPG1 120019Z 04009KT 12/M02 A3024 RMK A01 T01151015  RH  041%=      5-min Rain = 0
KPG1 120020Z 03009KT 11/M02 A3024 RMK A01 T01141015  RH  041%=      5-min Rain = 0
KPG1 120021Z 04012KT 11/M02 A3024 RMK A01 T01141016  RH  040%=      5-min Rain = 0
KPG1 120022Z 03010KT 11/M02 A3024 RMK A01 T01141016  RH  040%=      5-min Rain = 0
KPG1 120023Z 03010KT 12/M02 A3024 RMK A01 T01151016  RH  040%=      5-min Rain = 0
KPG1 120024Z 03009KT 11/M02 A3024 RMK A01 T01141016  RH  040%=      5-min Rain = 0
KPG1 120025Z 02010KT 11/M02 A3024 RMK A01 T01141017  RH  040%=      5-min Rain = 0
KPG1 120026Z 03010KT 11/M02 A3024 RMK A01 T01141016  RH  040%=      5-min Rain = 0
KPG1 120027Z 03010KT 11/M02 A3024 RMK A01 T01131017  RH  040%=      5-min Rain = 0
KPG1 120028Z 02009KT 11/M02 A3024 RMK A01 T01131017  RH  040%=      5-min Rain = 0
KPG1 120029Z 03008KT 11/M02 A3024 RMK A01 T01121018  RH  040%=      5-min Rain = 0
KPG1 120030Z 03008KT 11/M02 A3024 RMK A01 T01121018  RH  040%=      5-min Rain = 0
KPG1 120031Z 03009KT 11/M02 A3024 RMK A01 T01111018  RH  040%=      5-min Rain = 0
KPG1 120032Z 02009KT 11/M02 A3024 RMK A01 T01111018  RH  041%=      5-min Rain = 0
KPG1 120033Z 02009KT 11/M02 A3024 RMK A01 T01101019  RH  041%=      5-min Rain = 0
KPG1 120034Z 02009KT 11/M02 A3024 RMK A01 T01101019  RH  040%=      5-min Rain = 0
KPG1 120035Z 02011KT 11/M02 A3024 RMK A01 T01101019  RH  040%=      5-min Rain = 0
KPG1 120036Z 02011KT 11/M02 A3024 RMK A01 T01101020  RH  040%=      5-min Rain = 0
KPG1 120037Z 02010KT 11/M02 A3024 RMK A01 T01101021  RH  040%=      5-min Rain = 0
KPG1 120038Z 01010KT 11/M02 A3023 RMK A01 T01101021  RH  040%=      5-min Rain = 0
KPG1 120039Z 02009KT 11/M02 A3023 RMK A01 T01101021  RH  040%=      5-min Rain = 0
KPG1 120040Z 02010KT 11/M02 A3023 RMK A01 T01101021  RH  040%=      5-min Rain = 0
KPG1 120041Z 01010KT 11/M02 A3024 RMK A01 T01101021  RH  040%=      5-min Rain = 0
KPG1 120042Z 02010KT 11/M02 A3024 RMK A01 T01101022  RH  040%=      5-min Rain = 0
KPG1 120043Z 02010KT 11/M02 A3024 RMK A01 T01091022  RH  040%=      5-min Rain = 0
KPG1 120044Z 02011KT 11/M02 A3024 RMK A01 T01081022  RH  040%=      5-min Rain = 0
KPG1 120045Z 02010KT 11/M02 A3024 RMK A01 T01081023  RH  040%=      5-min Rain = 0
KPG1 120046Z 01010KT 11/M02 A3024 RMK A01 T01071023  RH  040%=      5-min Rain = 0
KPG1 120047Z 02010KT 11/M02 A3024 RMK A01 T01071024  RH  040%=      5-min Rain = 0
KPG1 120048Z 02009KT 11/M02 A3024 RMK A01 T01071024  RH  040%=      5-min Rain = 0
KPG1 120049Z 02009KT 11/M02 A3025 RMK A01 T01061024  RH  040%=      5-min Rain = 0
KPG1 120050Z 02008KT 11/M02 A3025 RMK A01 T01051024  RH  040%=      5-min Rain = 0
KPG1 120051Z 02008KT 11/M02 A3025 RMK A01 T01051024  RH  040%=      5-min Rain = 0
KPG1 120052Z 03008KT 10/M03 A3025 RMK A01 T01031025  RH  041%=      5-min Rain = 0
KPG1 120053Z 02008KT 10/M03 A3025 RMK A01 T01021025  RH  041%=      5-min Rain = 0
KPG1 120054Z 02008KT 10/M03 A3025 RMK A01 T01011025  RH  041%=      5-min Rain = 0
KPG1 120055Z 02008KT 10/M03 A3025 RMK A01 T01001025  RH  042%=      5-min Rain = 0
KPG1 120056Z 02007KT 10/M03 A3025 RMK A01 T00991025  RH  042%=      5-min Rain = 0
KPG1 120057Z 02007KT 10/M03 A3025 RMK A01 T00981025  RH  042%=      5-min Rain = 0
KPG1 120058Z 01007KT 10/M03 A3025 RMK A01 T00981025  RH  042%=      5-min Rain = 0
KPG1 120059Z 02007KT 10/M03 A3025 RMK A01 T00981025  RH  042%=      5-min Rain = 0
KPG1 120100Z 01008KT 10/M03 A3025 RMK A01 T00981025  RH  042%=      5-min Rain = 0
KPG1 120101Z 01008KT 10/M03 A3025 RMK A01 T00991025  RH  042%=      5-min Rain = 0
KPG1 120102Z 02009KT 10/M02 A3025 RMK A01 T01001024  RH  042%=      5-min Rain = 0
KPG1 120103Z 01009KT 10/M02 A3026 RMK A01 T01001024  RH  042%=      5-min Rain = 0
KPG1 120104Z 01008KT 10/M02 A3025 RMK A01 T01011024  RH  042%=      5-min Rain = 0
KPG1 120105Z 01009KT 10/M02 A3025 RMK A01 T01011024  RH  041%=      5-min Rain = 0
KPG1 120106Z 01009KT 10/M02 A3025 RMK A01 T01011024  RH  041%=      5-min Rain = 0
KPG1 120107Z 01009KT 10/M02 A3026 RMK A01 T01011024  RH  041%=      5-min Rain = 0
KPG1 120108Z 01009KT 10/M02 A3025 RMK A01 T01011024  RH  041%=      5-min Rain = 0
KPG1 120109Z 01010KT 10/M02 A3025 RMK A01 T01011024  RH  041%=      5-min Rain = 0
KPG1 120110Z 01010KT 10/M02 A3025 RMK A01 T01021024  RH  041%=      5-min Rain = 0
KPG1 120111Z 01008KT 10/M02 A3025 RMK A01 T01021023  RH  041%=      5-min Rain = 0
KPG1 120112Z 01008KT 10/M02 A3026 RMK A01 T01031024  RH  041%=      5-min Rain = 0
KPG1 120113Z 02009KT 10/M02 A3026 RMK A01 T01021024  RH  041%=      5-min Rain = 0
KPG1 120114Z 01008KT 10/M02 A3026 RMK A01 T01021024  RH  041%=      5-min Rain = 0
KPG1 120115Z 02010KT 10/M02 A3026 RMK A01 T01021024  RH  041%=      5-min Rain = 0
KPG1 120116Z 02010KT 10/M02 A3026 RMK A01 T01021023  RH  041%=      5-min Rain = 0
KPG1 120117Z 02010KT 10/M02 A3026 RMK A01 T01021023  RH  041%=      5-min Rain = 0
KPG1 120118Z 01009KT 10/M02 A3026 RMK A01 T01021023  RH  041%=      5-min Rain = 0
KPG1 120119Z 02010KT 10/M02 A3026 RMK A01 T01021024  RH  041%=      5-min Rain = 0
KPG1 120120Z 02010KT 10/M02 A3026 RMK A01 T01021023  RH  041%=      5-min Rain = 0
KPG1 120121Z 02010KT 10/M02 A3026 RMK A01 T01021023  RH  041%=      5-min Rain = 0
KPG1 120122Z 02010KT 10/M02 A3026 RMK A01 T01031023  RH  041%=      5-min Rain = 0
KPG1 120123Z 02010KT 10/M02 A3026 RMK A01 T01031023  RH  041%=      5-min Rain = 0
KPG1 120124Z 02010KT 10/M02 A3026 RMK A01 T01021023  RH  042%=      5-min Rain = 0
KPG1 120125Z 02010KT 10/M02 A3026 RMK A01 T01011023  RH  042%=      5-min Rain = 0
KPG1 120126Z 02011KT 10/M02 A3026 RMK A01 T01001023  RH  042%=      5-min Rain = 0
KPG1 120127Z 02010KT 10/M02 A3026 RMK A01 T01001022  RH  042%=      5-min Rain = 0
KPG1 120128Z 02010KT 10/M02 A3026 RMK A01 T01001022  RH  042%=      5-min Rain = 0
KPG1 120129Z 02010KT 10/M02 A3026 RMK A01 T01001022  RH  042%=      5-min Rain = 0
KPG1 120130Z 02009KT 10/M02 A3026 RMK A01 T01001022  RH  042%=      5-min Rain = 0
KPG1 120131Z 02010KT 10/M02 A3027 RMK A01 T00991022  RH  042%=      5-min Rain = 0
KPG1 120132Z 02009KT 10/M02 A3027 RMK A01 T00981023  RH  043%=      5-min Rain = 0
KPG1 120133Z 02010KT 10/M02 A3027 RMK A01 T00981023  RH  043%=      5-min Rain = 0
KPG1 120134Z 02011KT 10/M02 A3027 RMK A01 T00981023  RH  043%=      5-min Rain = 0
KPG1 120135Z 02012KT 10/M02 A3027 RMK A01 T00981022  RH  043%=      5-min Rain = 0
KPG1 120136Z 02010KT 10/M02 A3027 RMK A01 T00991022  RH  043%=      5-min Rain = 0
KPG1 120137Z 02010KT 10/M02 A3027 RMK A01 T00991023  RH  043%=      5-min Rain = 0
KPG1 120138Z 01010KT 10/M02 A3027 RMK A01 T00991023  RH  043%=      5-min Rain = 0
KPG1 120139Z 02011KT 10/M02 A3027 RMK A01 T00971024  RH  042%=      5-min Rain = 0
KPG1 120140Z 01010KT 10/M03 A3027 RMK A01 T00971026  RH  042%=      5-min Rain = 0
KPG1 120141Z 02011KT 10/M03 A3027 RMK A01 T00971027  RH  042%=      5-min Rain = 0
KPG1 120142Z 01011KT 10/M03 A3027 RMK A01 T00971028  RH  041%=      5-min Rain = 0
KPG1 120143Z 01011KT 10/M03 A3027 RMK A01 T00981029  RH  041%=      5-min Rain = 0
KPG1 120144Z 02011KT 10/M03 A3027 RMK A01 T00981029  RH  041%=      5-min Rain = 0
KPG1 120145Z 01009KT 10/M03 A3027 RMK A01 T00991029  RH  041%=      5-min Rain = 0
KPG1 120146Z 01011KT 10/M03 A3027 RMK A01 T00991031  RH  040%=      5-min Rain = 0
KPG1 120147Z 01011KT 10/M03 A3028 RMK A01 T01001033  RH  039%=      5-min Rain = 0
KPG1 120148Z 01010KT 10/M04 A3028 RMK A01 T01001035  RH  039%=      5-min Rain = 0
KPG1 120149Z 02011KT 10/M04 A3028 RMK A01 T01001037  RH  038%=      5-min Rain = 0
KPG1 120150Z 01011KT 10/M04 A3028 RMK A01 T01001038  RH  038%=      5-min Rain = 0
KPG1 120151Z 01010KT 10/M04 A3028 RMK A01 T01001038  RH  038%=      5-min Rain = 0
KPG1 120152Z 02010KT 10/M04 A3028 RMK A01 T00991038  RH  038%=      5-min Rain = 0
KPG1 120153Z 02011KT 10/M04 A3028 RMK A01 T00981038  RH  038%=      5-min Rain = 0
KPG1 120154Z 01011KT 10/M04 A3028 RMK A01 T00981040  RH  038%=      5-min Rain = 0
KPG1 120155Z 02012KT 10/M04 A3028 RMK A01 T00991041  RH  037%=      5-min Rain = 0
KPG1 120156Z 01010KT 10/M04 A3028 RMK A01 T01001041  RH  037%=      5-min Rain = 0
KPG1 120157Z 02011KT 10/M04 A3028 RMK A01 T00991041  RH  037%=      5-min Rain = 0
KPG1 120158Z 01010KT 10/M04 A3028 RMK A01 T00991042  RH  037%=      5-min Rain = 0
KPG1 120159Z 01012KT 10/M04 A3028 RMK A01 T00991043  RH  037%=      5-min Rain = 0
KPG1 120200Z 01011KT 10/M04 A3028 RMK A01 T00981044  RH  036%=      5-min Rain = 0
KPG1 120201Z 01009KT 10/M04 A3028 RMK A01 T00981044  RH  037%=      5-min Rain = 0
KPG1 120202Z 01011KT 10/M04 A3028 RMK A01 T00971044  RH  037%=      5-min Rain = 0
KPG1 120203Z 01013KT 10/M05 A3028 RMK A01 T00981046  RH  036%=      5-min Rain = 0
KPG1 120204Z 01011KT 10/M05 A3028 RMK A01 T00981046  RH  036%=      5-min Rain = 0
KPG1 120205Z 01011KT 10/M05 A3028 RMK A01 T00981046  RH  036%=      5-min Rain = 0
KPG1 120206Z 01012KT 10/M05 A3028 RMK A01 T00981047  RH  035%=      5-min Rain = 0
KPG1 120207Z 01013KT 10/M05 A3028 RMK A01 T00981048  RH  035%=      5-min Rain = 0
KPG1 120208Z 01011KT 10/M05 A3028 RMK A01 T00991049  RH  035%=      5-min Rain = 0
KPG1 120209Z 01012KT 10/M05 A3028 RMK A01 T00991049  RH  035%=      5-min Rain = 0
KPG1 120210Z 01013KT 10/M05 A3028 RMK A01 T00991049  RH  035%=      5-min Rain = 0
KPG1 120211Z 01012KT 10/M05 A3028 RMK A01 T00991049  RH  035%=      5-min Rain = 0
KPG1 120212Z 01013KT 10/M05 A3028 RMK A01 T00991049  RH  035%=      5-min Rain = 0
KPG1 120213Z 01012KT 10/M05 A3028 RMK A01 T00991051  RH  034%=      5-min Rain = 0
KPG1 120214Z 01012KT 10/M05 A3028 RMK A01 T00991051  RH  034%=      5-min Rain = 0
KPG1 120215Z 01012KT 10/M05 A3028 RMK A01 T00991051  RH  034%=      5-min Rain = 0
KPG1 120216Z 01012KT 10/M05 A3028 RMK A01 T00991052  RH  034%=      5-min Rain = 0
KPG1 120217Z 01013KT 10/M05 A3028 RMK A01 T00981052  RH  034%=      5-min Rain = 0
KPG1 120218Z 00012KT 10/M05 A3028 RMK A01 T00981053  RH  034%=      5-min Rain = 0
KPG1 120219Z 01013KT 10/M05 A3028 RMK A01 T00981053  RH  034%=      5-min Rain = 0
KPG1 120220Z 01013KT 10/M06 A3028 RMK A01 T00981055  RH  034%=      5-min Rain = 0
KPG1 120221Z 01013KT 10/M06 A3028 RMK A01 T00981056  RH  033%=      5-min Rain = 0
KPG1 120222Z 00011KT 10/M06 A3029 RMK A01 T00991055  RH  033%=      5-min Rain = 0
KPG1 120223Z 01011KT 10/M06 A3029 RMK A01 T00981055  RH  034%=      5-min Rain = 0
KPG1 120224Z 00010KT 10/M06 A3029 RMK A01 T00971055  RH  034%=      5-min Rain = 0
KPG1 120225Z 36010KT 10/M06 A3029 RMK A01 T00961055  RH  034%=      5-min Rain = 0
KPG1 120226Z 01010KT 10/M06 A3029 RMK A01 T00961056  RH  034%=      5-min Rain = 0
KPG1 120227Z 00010KT 10/M06 A3029 RMK A01 T00951056  RH  034%=      5-min Rain = 0
KPG1 120228Z 00010KT 10/M06 A3029 RMK A01 T00951057  RH  034%=      5-min Rain = 0
KPG1 120229Z 01011KT 10/M06 A3029 RMK A01 T00951058  RH  034%=      5-min Rain = 0
KPG1 120230Z 01011KT 10/M06 A3029 RMK A01 T00951059  RH  033%=      5-min Rain = 0
KPG1 120231Z 01010KT 10/M06 A3029 RMK A01 T00961059  RH  033%=      5-min Rain = 0
KPG1 120232Z 01011KT 10/M06 A3029 RMK A01 T00961060  RH  033%=      5-min Rain = 0
KPG1 120233Z 00011KT 10/M06 A3029 RMK A01 T00971060  RH  033%=      5-min Rain = 0
KPG1 120234Z 01010KT 10/M06 A3029 RMK A01 T00971060  RH  033%=      5-min Rain = 0
KPG1 120235Z 01010KT 10/M06 A3029 RMK A01 T00971060  RH  032%=      5-min Rain = 0
KPG1 120236Z 01010KT 10/M06 A3029 RMK A01 T00971061  RH  032%=      5-min Rain = 0
KPG1 120237Z 01010KT 10/M06 A3029 RMK A01 T00971061  RH  032%=      5-min Rain = 0
KPG1 120238Z 01008KT 10/M06 A3029 RMK A01 T00981061  RH  032%=      5-min Rain = 0
KPG1 120239Z 01009KT 10/M06 A3029 RMK A01 T00971062  RH  032%=      5-min Rain = 0
KPG1 120240Z 01009KT 10/M06 A3029 RMK A01 T00971062  RH  032%=      5-min Rain = 0
KPG1 120241Z 01007KT 10/M06 A3029 RMK A01 T00981062  RH  032%=      5-min Rain = 0
KPG1 120242Z 03007KT 10/M06 A3029 RMK A01 T00981062  RH  032%=      5-min Rain = 0
KPG1 120243Z 03006KT 10/M06 A3029 RMK A01 T00971062  RH  032%=      5-min Rain = 0
KPG1 120244Z 04007KT 09/M06 A3029 RMK A01 T00941061  RH  033%=      5-min Rain = 0
KPG1 120245Z 04006KT 09/M06 A3029 RMK A01 T00911061  RH  034%=      5-min Rain = 0
KPG1 120246Z 04005KT 09/M06 A3029 RMK A01 T00901060  RH  034%=      5-min Rain = 0
KPG1 120247Z 04005KT 09/M06 A303 RMK A01 T00891060  RH  034%=      5-min Rain = 0
KPG1 120248Z 03005KT 09/M06 A303 RMK A01 T00891059  RH  035%=      5-min Rain = 0
KPG1 120249Z 03005KT 09/M06 A303 RMK A01 T00881059  RH  035%=      5-min Rain = 0
KPG1 120250Z 03005KT 09/M06 A303 RMK A01 T00871060  RH  035%=      5-min Rain = 0
KPG1 120251Z 03005KT 09/M06 A303 RMK A01 T00871059  RH  035%=      5-min Rain = 0
KPG1 120252Z 03007KT 09/M06 A303 RMK A01 T00871059  RH  035%=      5-min Rain = 0
KPG1 120253Z 03006KT 09/M06 A303 RMK A01 T00861059  RH  035%=      5-min Rain = 0
KPG1 120254Z 03006KT 09/M06 A303 RMK A01 T00861059  RH  035%=      5-min Rain = 0
KPG1 120255Z 03005KT 09/M06 A303 RMK A01 T00861058  RH  036%=      5-min Rain = 0
KPG1 120256Z 01005KT 09/M06 A303 RMK A01 T00851058  RH  036%=      5-min Rain = 0
KPG1 120257Z 02006KT 08/M06 A303 RMK A01 T00841059  RH  036%=      5-min Rain = 0
KPG1 120258Z 01006KT 08/M06 A303 RMK A01 T00841059  RH  036%=      5-min Rain = 0
KPG1 120259Z 02005KT 09/M06 A303 RMK A01 T00861060  RH  035%=      5-min Rain = 0
KPG1 120300Z 02007KT 09/M06 A303 RMK A01 T00871059  RH  035%=      5-min Rain = 0
KPG1 120301Z 01006KT 09/M06 A303 RMK A01 T00881060  RH  035%=      5-min Rain = 0
KPG1 120302Z 02008KT 09/M06 A303 RMK A01 T00901060  RH  034%=      5-min Rain = 0
KPG1 120303Z 02007KT 09/M06 A303 RMK A01 T00911060  RH  034%=      5-min Rain = 0
KPG1 120304Z 01007KT 09/M06 A3029 RMK A01 T00921061  RH  033%=      5-min Rain = 0
KPG1 120305Z 01007KT 09/M06 A3029 RMK A01 T00921061  RH  033%=      5-min Rain = 0
KPG1 120306Z 01007KT 09/M06 A3029 RMK A01 T00921060  RH  033%=      5-min Rain = 0
KPG1 120307Z 01006KT 09/M06 A303 RMK A01 T00931060  RH  033%=      5-min Rain = 0
KPG1 120308Z 01007KT 09/M06 A303 RMK A01 T00931060  RH  033%=      5-min Rain = 0
KPG1 120309Z 02006KT 09/M06 A303 RMK A01 T00931060  RH  033%=      5-min Rain = 0
KPG1 120310Z 04004KT 09/M06 A303 RMK A01 T00931060  RH  033%=      5-min Rain = 0
KPG1 120311Z 04005KT 09/M06 A303 RMK A01 T00901060  RH  034%=      5-min Rain = 0
KPG1 120312Z 06006KT 09/M06 A303 RMK A01 T00861060  RH  035%=      5-min Rain = 0
KPG1 120313Z 08006KT 08/M06 A303 RMK A01 T00841060  RH  036%=      5-min Rain = 0
KPG1 120314Z 08005KT 08/M06 A303 RMK A01 T00841060  RH  036%=      5-min Rain = 0
KPG1 120315Z 08005KT 09/M06 A303 RMK A01 T00851060  RH  035%=      5-min Rain = 0
KPG1 120316Z 08005KT 09/M06 A303 RMK A01 T00861060  RH  035%=      5-min Rain = 0
KPG1 120317Z 07004KT 09/M06 A303 RMK A01 T00871059  RH  035%=      5-min Rain = 0
KPG1 120318Z 07004KT 09/M06 A303 RMK A01 T00871060  RH  035%=      5-min Rain = 0
KPG1 120319Z 08005KT 09/M06 A303 RMK A01 T00871060  RH  035%=      5-min Rain = 0
KPG1 120320Z 07004KT 09/M06 A303 RMK A01 T00881061  RH  034%=      5-min Rain = 0
KPG1 120321Z 09003KT 09/M06 A303 RMK A01 T00891060  RH  034%=      5-min Rain = 0
KPG1 120322Z 07003KT 09/M06 A303 RMK A01 T00891061  RH  034%=      5-min Rain = 0
KPG1 120323Z 06004KT 09/M06 A303 RMK A01 T00891061  RH  034%=      5-min Rain = 0
KPG1 120324Z 06004KT 09/M06 A303 RMK A01 T00881061  RH  034%=      5-min Rain = 0
KPG1 120325Z 07004KT 09/M06 A303 RMK A01 T00861061  RH  035%=      5-min Rain = 0
KPG1 120326Z 06006KT 09/M06 A303 RMK A01 T00861061  RH  035%=      5-min Rain = 0
KPG1 120327Z 06006KT 09/M06 A303 RMK A01 T00861061  RH  035%=      5-min Rain = 0
KPG1 120328Z 06007KT 09/M06 A303 RMK A01 T00851061  RH  035%=      5-min Rain = 0
KPG1 120329Z 05007KT 09/M06 A303 RMK A01 T00861060  RH  035%=      5-min Rain = 0
KPG1 120330Z 04006KT 09/M06 A303 RMK A01 T00851060  RH  035%=      5-min Rain = 0
KPG1 120331Z 03006KT 08/M06 A303 RMK A01 T00841060  RH  036%=      5-min Rain = 0
KPG1 120332Z 03006KT 08/M06 A303 RMK A01 T00831060  RH  036%=      5-min Rain = 0
KPG1 120333Z 02007KT 08/M06 A303 RMK A01 T00821060  RH  036%=      5-min Rain = 0
KPG1 120334Z 02007KT 08/M06 A303 RMK A01 T00811060  RH  036%=      5-min Rain = 0
KPG1 120335Z 03007KT 08/M06 A303 RMK A01 T00801060  RH  037%=      5-min Rain = 0
KPG1 120336Z 03007KT 08/M06 A303 RMK A01 T00791059  RH  037%=      5-min Rain = 0
KPG1 120337Z 03006KT 08/M06 A303 RMK A01 T00791059  RH  037%=      5-min Rain = 0
KPG1 120338Z 03007KT 08/M06 A303 RMK A01 T00781059  RH  037%=      5-min Rain = 0
KPG1 120339Z 03007KT 08/M06 A303 RMK A01 T00761060  RH  038%=      5-min Rain = 0
KPG1 120340Z 03007KT 08/M06 A303 RMK A01 T00751060  RH  038%=      5-min Rain = 0
KPG1 120341Z 03007KT 07/M06 A303 RMK A01 T00741059  RH  038%=      5-min Rain = 0
KPG1 120342Z 03007KT 07/M06 A303 RMK A01 T00731059  RH  039%=      5-min Rain = 0
KPG1 120343Z 03008KT 07/M06 A303 RMK A01 T00721059  RH  039%=      5-min Rain = 0
KPG1 120344Z 04008KT 07/M06 A303 RMK A01 T00711059  RH  039%=      5-min Rain = 0
KPG1 120345Z 04008KT 07/M06 A303 RMK A01 T00701059  RH  039%=      5-min Rain = 0
KPG1 120346Z 05007KT 07/M06 A303 RMK A01 T00691059  RH  039%=      5-min Rain = 0
KPG1 120347Z 04007KT 07/M06 A303 RMK A01 T00691059  RH  040%=      5-min Rain = 0
KPG1 120348Z 04007KT 07/M06 A303 RMK A01 T00691059  RH  040%=      5-min Rain = 0
KPG1 120349Z 04007KT 07/M06 A303 RMK A01 T00691058  RH  040%=      5-min Rain = 0
KPG1 120350Z 03008KT 07/M06 A303 RMK A01 T00691058  RH  040%=      5-min Rain = 0
KPG1 120351Z 03009KT 07/M06 A303 RMK A01 T00691058  RH  040%=      5-min Rain = 0
KPG1 120352Z 03008KT 07/M06 A303 RMK A01 T00701058  RH  040%=      5-min Rain = 0
KPG1 120353Z 03008KT 07/M06 A303 RMK A01 T00711058  RH  039%=      5-min Rain = 0
KPG1 120354Z 03008KT 07/M06 A303 RMK A01 T00721058  RH  039%=      5-min Rain = 0
KPG1 120355Z 03007KT 07/M06 A303 RMK A01 T00731058  RH  039%=      5-min Rain = 0
KPG1 120356Z 03007KT 07/M06 A303 RMK A01 T00741058  RH  038%=      5-min Rain = 0
KPG1 120357Z 03007KT 07/M06 A303 RMK A01 T00741059  RH  038%=      5-min Rain = 0
KPG1 120358Z 03008KT 07/M06 A303 RMK A01 T00741059  RH  038%=      5-min Rain = 0
KPG1 120359Z 03008KT 07/M06 A303 RMK A01 T00741059  RH  038%=      5-min Rain = 0
KPG1 120400Z 03008KT 08/M06 A303 RMK A01 T00751059  RH  038%=      5-min Rain = 0
KPG1 120401Z 03008KT 08/M06 A303 RMK A01 T00751059  RH  038%=      5-min Rain = 0
KPG1 120402Z 02008KT 07/M06 A303 RMK A01 T00741059  RH  038%=      5-min Rain = 0
KPG1 120403Z 02008KT 07/M06 A303 RMK A01 T00731059  RH  038%=      5-min Rain = 0
KPG1 120404Z 02008KT 07/M06 A303 RMK A01 T00731059  RH  038%=      5-min Rain = 0
KPG1 120405Z 02007KT 07/M06 A303 RMK A01 T00731059  RH  039%=      5-min Rain = 0
KPG1 120406Z 03009KT 07/M06 A303 RMK A01 T00721059  RH  039%=      5-min Rain = 0
KPG1 120407Z 03008KT 07/M06 A303 RMK A01 T00721059  RH  039%=      5-min Rain = 0
KPG1 120408Z 03008KT 07/M06 A303 RMK A01 T00721059  RH  039%=      5-min Rain = 0
KPG1 120409Z 02008KT 07/M06 A303 RMK A01 T00711059  RH  039%=      5-min Rain = 0
KPG1 120410Z 02009KT 07/M06 A303 RMK A01 T00711059  RH  039%=      5-min Rain = 0
KPG1 120411Z 03009KT 07/M06 A303 RMK A01 T00721060  RH  039%=      5-min Rain = 0
KPG1 120412Z 03008KT 07/M06 A303 RMK A01 T00731060  RH  038%=      5-min Rain = 0
KPG1 120413Z 04008KT 07/M06 A303 RMK A01 T00731060  RH  038%=      5-min Rain = 0
KPG1 120414Z 04008KT 07/M06 A303 RMK A01 T00721060  RH  039%=      5-min Rain = 0
KPG1 120415Z 04008KT 07/M06 A303 RMK A01 T00711060  RH  039%=      5-min Rain = 0
KPG1 120416Z 04008KT 07/M06 A303 RMK A01 T00701060  RH  039%=      5-min Rain = 0
KPG1 120417Z 04007KT 07/M06 A3031 RMK A01 T00691060  RH  039%=      5-min Rain = 0
KPG1 120418Z 04006KT 07/M06 A3031 RMK A01 T00681060  RH  040%=      5-min Rain = 0
KPG1 120419Z 05005KT 07/M06 A3031 RMK A01 T00681059  RH  040%=      5-min Rain = 0
KPG1 120420Z 06005KT 07/M06 A3031 RMK A01 T00681059  RH  040%=      5-min Rain = 0
KPG1 120421Z 08004KT 07/M06 A3031 RMK A01 T00681059  RH  040%=      5-min Rain = 0
KPG1 120422Z 14003KT 07/M06 A3031 RMK A01 T00681059  RH  040%=      5-min Rain = 0
KPG1 120423Z 14004KT 07/M06 A3031 RMK A01 T00681058  RH  040%=      5-min Rain = 0
KPG1 120424Z 15002KT 07/M06 A3031 RMK A01 T00691058  RH  040%=      5-min Rain = 0
KPG1 120425Z 05001KT 07/M06 A3031 RMK A01 T00691058  RH  040%=      5-min Rain = 0
KPG1 120426Z 00002KT 07/M06 A3031 RMK A01 T00691058  RH  040%=      5-min Rain = 0
KPG1 120427Z 36003KT 07/M06 A3031 RMK A01 T00691058  RH  040%=      5-min Rain = 0
KPG1 120428Z 00003KT 07/M06 A3031 RMK A01 T00691059  RH  040%=      5-min Rain = 0
KPG1 120429Z 00003KT 07/M06 A3031 RMK A01 T00701058  RH  039%=      5-min Rain = 0
KPG1 120430Z 00002KT 07/M06 A3031 RMK A01 T00721058  RH  039%=      5-min Rain = 0
KPG1 120431Z 01002KT 07/M06 A3031 RMK A01 T00731058  RH  039%=      5-min Rain = 0
KPG1 120432Z 01001KT 07/M06 A3031 RMK A01 T00731058  RH  039%=      5-min Rain = 0
KPG1 120433Z 01001KT 07/M06 A3031 RMK A01 T00731059  RH  039%=      5-min Rain = 0
KPG1 120434Z 36002KT 07/M06 A3031 RMK A01 T00731058  RH  039%=      5-min Rain = 0
KPG1 120435Z 01002KT 07/M06 A3031 RMK A01 T00731058  RH  039%=      5-min Rain = 0
KPG1 120436Z 35002KT 07/M06 A3031 RMK A01 T00731058  RH  039%=      5-min Rain = 0
KPG1 120437Z 35004KT 07/M06 A3031 RMK A01 T00721058  RH  039%=      5-min Rain = 0
KPG1 120438Z 03003KT 07/M06 A3031 RMK A01 T00711058  RH  039%=      5-min Rain = 0
KPG1 120439Z 02003KT 07/M06 A3031 RMK A01 T00701059  RH  039%=      5-min Rain = 0
KPG1 120440Z 02003KT 07/M06 A3031 RMK A01 T00691059  RH  040%=      5-min Rain = 0
KPG1 120441Z 03003KT 07/M06 A3031 RMK A01 T00681059  RH  040%=      5-min Rain = 0
KPG1 120442Z 02003KT 07/M06 A3031 RMK A01 T00671059  RH  040%=      5-min Rain = 0
KPG1 120443Z 02002KT 06/M06 A3031 RMK A01 T00631060  RH  041%=      5-min Rain = 0
KPG1 120444Z 01002KT 06/M06 A3031 RMK A01 T00611060  RH  041%=      5-min Rain = 0
KPG1 120445Z 35003KT 06/M06 A3031 RMK A01 T00611059  RH  042%=      5-min Rain = 0
KPG1 120446Z 36003KT 06/M06 A3031 RMK A01 T00611059  RH  042%=      5-min Rain = 0
KPG1 120447Z 00002KT 06/M06 A3031 RMK A01 T00631057  RH  042%=      5-min Rain = 0
KPG1 120448Z 36002KT 07/M06 A3031 RMK A01 T00671056  RH  041%=      5-min Rain = 0
KPG1 120449Z 01003KT 07/M06 A3031 RMK A01 T00691056  RH  040%=      5-min Rain = 0
KPG1 120450Z 01003KT 07/M06 A3031 RMK A01 T00691056  RH  040%=      5-min Rain = 0
KPG1 120451Z 02004KT 07/M06 A3031 RMK A01 T00701056  RH  040%=      5-min Rain = 0
KPG1 120452Z 02005KT 07/M06 A303 RMK A01 T00681057  RH  041%=      5-min Rain = 0
KPG1 120453Z 02006KT 06/M06 A303 RMK A01 T00641058  RH  041%=      5-min Rain = 0
KPG1 120454Z 03006KT 06/M06 A303 RMK A01 T00641056  RH  042%=      5-min Rain = 0
KPG1 120455Z 03006KT 06/M06 A303 RMK A01 T00631055  RH  042%=      5-min Rain = 0
KPG1 120456Z 03007KT 06/M05 A303 RMK A01 T00641053  RH  043%=      5-min Rain = 0
KPG1 120457Z 04006KT 07/M05 A303 RMK A01 T00661053  RH  042%=      5-min Rain = 0
KPG1 120458Z 04005KT 07/M05 A303 RMK A01 T00661053  RH  042%=      5-min Rain = 0
KPG1 120459Z 04005KT 07/M05 A303 RMK A01 T00671053  RH  042%=      5-min Rain = 0
KPG1 120500Z 04004KT 07/M05 A303 RMK A01 T00671053  RH  042%=      5-min Rain = 0
KPG1 120501Z 03005KT 07/M05 A3031 RMK A01 T00671053  RH  042%=      5-min Rain = 0
KPG1 120502Z 04004KT 07/M05 A3031 RMK A01 T00671053  RH  042%=      5-min Rain = 0
KPG1 120503Z 05004KT 07/M05 A3031 RMK A01 T00671053  RH  042%=      5-min Rain = 0
KPG1 120504Z 06003KT 07/M05 A3031 RMK A01 T00651054  RH  042%=      5-min Rain = 0
KPG1 120505Z 07005KT 06/M05 A3031 RMK A01 T00641054  RH  043%=      5-min Rain = 0
KPG1 120506Z 07007KT 06/M05 A3031 RMK A01 T00641053  RH  043%=      5-min Rain = 0
KPG1 120507Z 08007KT 07/M05 A3031 RMK A01 T00651053  RH  043%=      5-min Rain = 0
KPG1 120508Z 08007KT 07/M05 A3031 RMK A01 T00671053  RH  042%=      5-min Rain = 0
KPG1 120509Z 08007KT 07/M05 A3031 RMK A01 T00691053  RH  042%=      5-min Rain = 0
KPG1 120510Z 07007KT 07/M05 A3031 RMK A01 T00701053  RH  041%=      5-min Rain = 0
KPG1 120511Z 06007KT 07/M05 A3031 RMK A01 T00711053  RH  041%=      5-min Rain = 0
KPG1 120512Z 05006KT 07/M05 A3031 RMK A01 T00711054  RH  041%=      5-min Rain = 0
KPG1 120513Z 05005KT 07/M05 A303 RMK A01 T00711054  RH  041%=      5-min Rain = 0
KPG1 120514Z 02005KT 07/M06 A303 RMK A01 T00681055  RH  041%=      5-min Rain = 0
KPG1 120515Z 02006KT 07/M06 A303 RMK A01 T00661055  RH  042%=      5-min Rain = 0
KPG1 120516Z 02007KT 07/M06 A303 RMK A01 T00651055  RH  042%=      5-min Rain = 0
KPG1 120517Z 02007KT 07/M05 A303 RMK A01 T00661054  RH  042%=      5-min Rain = 0
KPG1 120518Z 01007KT 07/M06 A303 RMK A01 T00661055  RH  042%=      5-min Rain = 0
KPG1 120519Z 01007KT 07/M06 A303 RMK A01 T00671055  RH  042%=      5-min Rain = 0
KPG1 120520Z 01006KT 07/M06 A303 RMK A01 T00671055  RH  041%=      5-min Rain = 0
KPG1 120521Z 02006KT 07/M06 A303 RMK A01 T00671055  RH  041%=      5-min Rain = 0
KPG1 120522Z 03005KT 07/M06 A3031 RMK A01 T00681056  RH  041%=      5-min Rain = 0
KPG1 120523Z 03004KT 07/M06 A3031 RMK A01 T00691055  RH  041%=      5-min Rain = 0
KPG1 120524Z 03004KT 07/M06 A3031 RMK A01 T00671056  RH  041%=      5-min Rain = 0
KPG1 120525Z 03005KT 07/M06 A3031 RMK A01 T00671056  RH  041%=      5-min Rain = 0
KPG1 120526Z 03005KT 07/M06 A3031 RMK A01 T00671056  RH  041%=      5-min Rain = 0
KPG1 120527Z 04004KT 07/M06 A3031 RMK A01 T00681055  RH  041%=      5-min Rain = 0
KPG1 120528Z 03004KT 07/M06 A3031 RMK A01 T00681056  RH  041%=      5-min Rain = 0
KPG1 120529Z 03005KT 07/M06 A3031 RMK A01 T00681056  RH  041%=      5-min Rain = 0
KPG1 120530Z 03005KT 07/M06 A3031 RMK A01 T00681056  RH  041%=      5-min Rain = 0
KPG1 120531Z 03005KT 07/M06 A3031 RMK A01 T00691056  RH  041%=      5-min Rain = 0
KPG1 120532Z 02005KT 07/M06 A3031 RMK A01 T00681056  RH  041%=      5-min Rain = 0
KPG1 120533Z 01005KT 07/M06 A3031 RMK A01 T00661057  RH  041%=      5-min Rain = 0
KPG1 120534Z 01005KT 07/M06 A3031 RMK A01 T00651057  RH  041%=      5-min Rain = 0
KPG1 120535Z 01005KT 07/M06 A3031 RMK A01 T00671056  RH  041%=      5-min Rain = 0
KPG1 120536Z 01005KT 07/M06 A3031 RMK A01 T00671056  RH  041%=      5-min Rain = 0
KPG1 120537Z 01004KT 07/M06 A3031 RMK A01 T00671056  RH  041%=      5-min Rain = 0
KPG1 120538Z 01004KT 07/M06 A3031 RMK A01 T00671056  RH  041%=      5-min Rain = 0
KPG1 120539Z 03004KT 07/M06 A3031 RMK A01 T00671056  RH  041%=      5-min Rain = 0
KPG1 120540Z 04003KT 07/M06 A3031 RMK A01 T00671056  RH  041%=      5-min Rain = 0
KPG1 120541Z 05004KT 06/M06 A3031 RMK A01 T00641057  RH  042%=      5-min Rain = 0
KPG1 120542Z 05004KT 06/M06 A3031 RMK A01 T00611057  RH  042%=      5-min Rain = 0
KPG1 120543Z 06004KT 06/M06 A3031 RMK A01 T00581058  RH  043%=      5-min Rain = 0
KPG1 120544Z 05005KT 06/M06 A3031 RMK A01 T00561057  RH  044%=      5-min Rain = 0
KPG1 120545Z 05005KT 06/M06 A3031 RMK A01 T00561056  RH  044%=      5-min Rain = 0
KPG1 120546Z 05005KT 06/M06 A3031 RMK A01 T00571056  RH  044%=      5-min Rain = 0
KPG1 120547Z 04004KT 06/M06 A3031 RMK A01 T00571056  RH  044%=      5-min Rain = 0
KPG1 120548Z 04004KT 06/M06 A3031 RMK A01 T00571056  RH  044%=      5-min Rain = 0
KPG1 120549Z 04004KT 06/M06 A3031 RMK A01 T00591056  RH  043%=      5-min Rain = 0
KPG1 120550Z 04004KT 06/M06 A3031 RMK A01 T00591056  RH  043%=      5-min Rain = 0
KPG1 120551Z 04003KT 06/M06 A3031 RMK A01 T00581056  RH  043%=      5-min Rain = 0
KPG1 120552Z 04003KT 06/M06 A3031 RMK A01 T00561057  RH  044%=      5-min Rain = 0
KPG1 120553Z 05003KT 06/M06 A3031 RMK A01 T00551057  RH  044%=      5-min Rain = 0
KPG1 120554Z 04003KT 06/M06 A3031 RMK A01 T00551057  RH  044%=      5-min Rain = 0
KPG1 120555Z 05003KT 06/M06 A3031 RMK A01 T00551056  RH  045%=      5-min Rain = 0
KPG1 120556Z 05003KT 05/M06 A3031 RMK A01 T00541057  RH  045%=      5-min Rain = 0
KPG1 120557Z 05003KT 05/M06 A3031 RMK A01 T00531057  RH  045%=      5-min Rain = 0
KPG1 120558Z 05003KT 05/M06 A3031 RMK A01 T00511057  RH  045%=      5-min Rain = 0
KPG1 120559Z 07003KT 05/M06 A3031 RMK A01 T00501057  RH  046%=      5-min Rain = 0

Page generated in 0.1536 seconds.